Behrens, Klaus (2010): Radiosonde measurements from station Lindenberg (2001-09) [dataset]. Meteorologisches Observatorium Potsdam, PANGAEA, https://doi.org/10.1594/PANGAEA.736306
Always quote citation above when using data! You can download the citation in several formats below.
Published: 2010-04-07 • DOI registered: 2010-05-05
Other version:
Behrens, Klaus (2010): BSRN Station-to-archive file for station Lindenberg (2001-09) [dataset]. ftp://ftp.bsrn.awi.de/lin/lin0901.dat.gz
Project(s):
Coverage:
Latitude: 52.210000 * Longitude: 14.122000
Date/Time Start: 2001-09-01T00:00:00 * Date/Time End: 2001-09-30T18:00:00
Minimum ALTITUDE: 112 m * Maximum ALTITUDE: 38035 m
Event(s):
LIN (Lindenberg) * Latitude: 52.210000 * Longitude: 14.122000 * Date/Time: 1994-09-01T00:00:00 * Elevation: 125.0 m * Location: Germany * Method/Device: Monitoring station (MONS) * Comment: BSRN station no: 12; Surface type: cultivated; Topography type: hilly, rural; Horizon: doi:10.1594/PANGAEA.669521; Station scientist: Stefan Wacker (Stefan.Wacker@dwd.de)
Parameter(s):
| # | Name | Short Name | Unit | Principal Investigator | Method/Device | Comment |
|---|---|---|---|---|---|---|
| 1 | DATE/TIME | Date/Time | Geocode | |||
| 2 | ALTITUDE | Altitude | m | Geocode | ||
| 3 | Pressure, at given altitude | PPPP | hPa | Behrens, Klaus | Radiosonde, Vaisala, RS80 | |
| 4 | Temperature, air | TTT | °C | Behrens, Klaus | Radiosonde, Vaisala, RS80 | |
| 5 | Dew/frost point | TdTdTd | °C | Behrens, Klaus | Radiosonde, Vaisala, RS80 | |
| 6 | Wind direction | dd | deg | Behrens, Klaus | Radiosonde, Vaisala, RS80 | |
| 7 | Wind speed | ff | m/s | Behrens, Klaus | Radiosonde, Vaisala, RS80 | |
| 8 | Ozone, partial pressure | pO3 | mPa | Behrens, Klaus | Radiosonde, Vaisala, RS80 |
License:
Size:
216557 data points
Data
| 1 Date/Time | 2 Altitude [m] | 3 PPPP [hPa] | 4 TTT [°C] | 5 TdTdTd [°C] | 6 dd [deg] | 7 ff [m/s] | 8 pO3 [mPa] |
|---|---|---|---|---|---|---|---|
| 2001-09-01T00:00 | 112 | 998 | 15.2 | 15.0 | 240 | 2 | |
| 2001-09-01T00:00 | 166 | 991 | 15.1 | 14.6 | 241 | 5 | |
| 2001-09-01T00:00 | 212 | 986 | 15.3 | 14.0 | |||
| 2001-09-01T00:00 | 255 | 981 | 15.4 | 13.4 | 260 | 3 | |
| 2001-09-01T00:00 | 290 | 977 | 15.1 | 13.0 | |||
| 2001-09-01T00:00 | 324 | 973 | 14.9 | 12.6 | |||
| 2001-09-01T00:00 | 359 | 969 | 14.8 | 12.7 | 288 | 3 | |
| 2001-09-01T00:00 | 398 | 965 | 14.5 | 12.5 | |||
| 2001-09-01T00:00 | 444 | 959 | 14.0 | 12.4 | |||
| 2001-09-01T00:00 | 491 | 954 | 13.5 | 12.2 | 299 | 3 | |
| 2001-09-01T00:00 | 540 | 948 | 13.1 | 12.0 | |||
| 2001-09-01T00:00 | 590 | 943 | 12.9 | 12.1 | |||
| 2001-09-01T00:00 | 637 | 938 | 12.7 | 11.9 | 306 | 2 | |
| 2001-09-01T00:00 | 676 | 933 | 12.4 | 11.8 | |||
| 2001-09-01T00:00 | 717 | 929 | 12.0 | 11.4 | |||
| 2001-09-01T00:00 | 760 | 924 | 11.6 | 11.1 | 312 | 3 | |
| 2001-09-01T00:00 | 803 | 919 | 11.4 | 10.9 | |||
| 2001-09-01T00:00 | 846 | 915 | 11.1 | 10.6 | |||
| 2001-09-01T00:00 | 887 | 910 | 10.9 | 10.4 | 316 | 3 | |
| 2001-09-01T00:00 | 936 | 905 | 10.6 | 10.1 | |||
| 2001-09-01T00:00 | 981 | 900 | 10.4 | 9.9 | |||
| 2001-09-01T00:00 | 1025 | 895 | 10.2 | 9.8 | 322 | 4 | |
| 2001-09-01T00:00 | 1070 | 890 | 9.6 | 9.2 | |||
| 2001-09-01T00:00 | 1117 | 885 | 9.4 | 9.0 | |||
| 2001-09-01T00:00 | 1168 | 880 | 9.2 | 8.8 | 328 | 4 | |
| 2001-09-01T00:00 | 1212 | 875 | 9.1 | 8.5 | |||
| 2001-09-01T00:00 | 1255 | 871 | 8.9 | 8.1 | |||
| 2001-09-01T00:00 | 1295 | 866 | 8.8 | 8.0 | 330 | 5 | |
| 2001-09-01T00:00 | 1338 | 862 | 8.7 | 7.9 | |||
| 2001-09-01T00:00 | 1384 | 857 | 8.6 | 7.9 | |||
| 2001-09-01T00:00 | 1435 | 852 | 8.5 | 7.9 | 324 | 4 | |
| 2001-09-01T00:00 | 1484 | 847 | 8.3 | 7.7 | |||
| 2001-09-01T00:00 | 1532 | 842 | 8.1 | 7.7 | |||
| 2001-09-01T00:00 | 1583 | 837 | 8.0 | 7.6 | 314 | 3 | |
| 2001-09-01T00:00 | 1631 | 832 | 8.0 | 7.6 | |||
| 2001-09-01T00:00 | 1679 | 827 | 7.8 | 7.2 | |||
| 2001-09-01T00:00 | 1728 | 822 | 7.6 | 7.0 | 283 | 3 | |
| 2001-09-01T00:00 | 1774 | 818 | 7.4 | 6.5 | |||
| 2001-09-01T00:00 | 1823 | 813 | 7.2 | 6.3 | |||
| 2001-09-01T00:00 | 1871 | 808 | 6.8 | 5.9 | 258 | 3 | |
| 2001-09-01T00:00 | 1919 | 804 | 6.6 | 5.7 | |||
| 2001-09-01T00:00 | 1967 | 799 | 6.3 | 5.6 | |||
| 2001-09-01T00:00 | 2017 | 794 | 6.0 | 5.4 | 236 | 3 | |
| 2001-09-01T00:00 | 2065 | 789 | 5.7 | 5.3 | |||
| 2001-09-01T00:00 | 2113 | 785 | 5.3 | 4.9 | |||
| 2001-09-01T00:00 | 2163 | 780 | 4.8 | 4.4 | 230 | 3 | |
| 2001-09-01T00:00 | 2213 | 775 | 4.6 | 4.2 | |||
| 2001-09-01T00:00 | 2265 | 770 | 4.5 | 3.9 | |||
| 2001-09-01T00:00 | 2319 | 765 | 4.2 | 3.2 | 230 | 3 | |
| 2001-09-01T00:00 | 2374 | 760 | 3.8 | 3.2 | |||
| 2001-09-01T00:00 | 2426 | 755 | 3.5 | 3.1 | |||
| 2001-09-01T00:00 | 2474 | 751 | 3.2 | 2.5 | 229 | 4 | |
| 2001-09-01T00:00 | 2519 | 747 | 2.9 | 1.9 | |||
| 2001-09-01T00:00 | 2565 | 742 | 2.5 | 1.3 | |||
| 2001-09-01T00:00 | 2612 | 738 | 2.1 | 0.9 | 224 | 4 | |
| 2001-09-01T00:00 | 2660 | 734 | 1.8 | 0.9 | |||
| 2001-09-01T00:00 | 2709 | 729 | 1.4 | 0.8 | |||
| 2001-09-01T00:00 | 2764 | 724 | 1.1 | 0.7 | 214 | 5 | |
| 2001-09-01T00:00 | 2821 | 719 | 1.3 | 0.9 | |||
| 2001-09-01T00:00 | 2882 | 714 | 0.9 | 0.5 | |||
| 2001-09-01T00:00 | 2947 | 708 | 0.5 | 0.1 | 203 | 4 | |
| 2001-09-01T00:00 | 3010 | 703 | 0.0 | -0.4 | |||
| 2001-09-01T00:00 | 3070 | 697 | -0.4 | -0.8 | |||
| 2001-09-01T00:00 | 3129 | 692 | -0.8 | -1.2 | 188 | 4 | |
| 2001-09-01T00:00 | 3187 | 687 | -1.3 | -1.7 | |||
| 2001-09-01T00:00 | 3248 | 682 | -1.6 | ||||
| 2001-09-01T00:00 | 3310 | 677 | -2.0 | -2.4 | 183 | 3 | |
| 2001-09-01T00:00 | 3372 | 671 | -2.3 | -2.7 | |||
| 2001-09-01T00:00 | 3430 | 666 | -2.5 | -2.9 | |||
| 2001-09-01T00:00 | 3487 | 662 | -2.7 | -3.1 | 185 | 3 | |
| 2001-09-01T00:00 | 3537 | 658 | -2.4 | -2.8 | |||
| 2001-09-01T00:00 | 3586 | 654 | -2.8 | -3.2 | |||
| 2001-09-01T00:00 | 3632 | 650 | -3.1 | -3.5 | 185 | 2 | |
| 2001-09-01T00:00 | 3680 | 646 | -3.3 | -3.7 | |||
| 2001-09-01T00:00 | 3729 | 642 | -3.7 | -4.4 | |||
| 2001-09-01T00:00 | 3779 | 638 | -4.2 | -5.2 | 184 | 2 | |
| 2001-09-01T00:00 | 3831 | 634 | -4.6 | -6.6 | |||
| 2001-09-01T00:00 | 3887 | 629 | -5.0 | -8.0 | |||
| 2001-09-01T00:00 | 3944 | 625 | -5.0 | -6.9 | 177 | 1 | |
| 2001-09-01T00:00 | 3990 | 621 | -5.1 | -6.2 | |||
| 2001-09-01T00:00 | 4040 | 617 | -5.2 | -5.8 | |||
| 2001-09-01T00:00 | 4098 | 613 | -5.5 | -6.5 | 165 | 1 | |
| 2001-09-01T00:00 | 4159 | 608 | -6.0 | -7.1 | |||
| 2001-09-01T00:00 | 4218 | 603 | -6.4 | -7.6 | |||
| 2001-09-01T00:00 | 4276 | 599 | -6.7 | -7.8 | 155 | 1 | |
| 2001-09-01T00:00 | 4335 | 594 | -7.1 | -8.6 | |||
| 2001-09-01T00:00 | 4396 | 590 | -7.5 | -9.0 | |||
| 2001-09-01T00:00 | 4455 | 585 | -8.0 | -9.2 | 152 | 2 | |
| 2001-09-01T00:00 | 4514 | 581 | -8.3 | -9.3 | |||
| 2001-09-01T00:00 | 4572 | 576 | -8.4 | -9.0 | |||
| 2001-09-01T00:00 | 4631 | 572 | -8.5 | -8.9 | 150 | 3 | |
| 2001-09-01T00:00 | 4680 | 568 | -8.6 | -9.6 | |||
| 2001-09-01T00:00 | 4732 | 565 | -8.8 | -10.1 | |||
| 2001-09-01T00:00 | 4785 | 561 | -9.2 | -10.9 | 155 | 3 | |
| 2001-09-01T00:00 | 4841 | 557 | -9.5 | -11.7 | |||
| 2001-09-01T00:00 | 4900 | 553 | -9.8 | -12.9 | |||
| 2001-09-01T00:00 | 4964 | 548 | -10.0 | -12.4 | 168 | 3 | |
| 2001-09-01T00:00 | 5015 | 544 | -10.1 | -12.2 | |||
| 2001-09-01T00:00 | 5069 | 541 | -10.3 | -12.4 | |||
| 2001-09-01T00:00 | 5126 | 537 | -10.6 | -12.5 | 181 | 3 | |
| 2001-09-01T00:00 | 5184 | 533 | -11.1 | -12.9 | |||
| 2001-09-01T00:00 | 5242 | 529 | -11.5 | -13.0 | |||
| 2001-09-01T00:00 | 5298 | 525 | -12.0 | -13.4 | 185 | 4 | |
| 2001-09-01T00:00 | 5356 | 521 | -12.4 | -13.6 | |||
| 2001-09-01T00:00 | 5414 | 517 | -12.7 | -13.6 | |||
| 2001-09-01T00:00 | 5473 | 513 | -13.0 | -13.8 | 180 | 5 | |
| 2001-09-01T00:00 | 5531 | 509 | -13.6 | -14.3 | |||
| 2001-09-01T00:00 | 5591 | 505 | -14.1 | -14.7 | |||
| 2001-09-01T00:00 | 5648 | 501 | -14.5 | -15.1 | 176 | 6 | |
| 2001-09-01T00:00 | 5713 | 497 | -14.8 | -15.6 | |||
| 2001-09-01T00:00 | 5776 | 493 | -15.3 | -16.0 | |||
| 2001-09-01T00:00 | 5836 | 489 | -15.7 | -16.3 | 173 | 7 | |
| 2001-09-01T00:00 | 5893 | 485 | -16.1 | -16.7 | |||
| 2001-09-01T00:00 | 5949 | 482 | -16.4 | -17.0 | |||
| 2001-09-01T00:00 | 6002 | 478 | -16.9 | -17.5 | 171 | 8 | |
| 2001-09-01T00:00 | 6066 | 474 | -17.3 | -18.0 | |||
| 2001-09-01T00:00 | 6125 | 470 | -17.6 | -18.4 | |||
| 2001-09-01T00:00 | 6181 | 467 | -17.8 | -18.8 | 169 | 8 | |
| 2001-09-01T00:00 | 6238 | 463 | -18.1 | -19.2 | |||
| 2001-09-01T00:00 | 6296 | 460 | -18.6 | -19.8 | |||
| 2001-09-01T00:00 | 6358 | 456 | -19.0 | -20.2 | 169 | 9 | |
| 2001-09-01T00:00 | 6411 | 453 | -19.4 | -20.4 | |||
| 2001-09-01T00:00 | 6462 | 450 | -19.8 | -20.8 | |||
| 2001-09-01T00:00 | 6514 | 446 | -20.1 | -21.1 | 171 | 9 | |
| 2001-09-01T00:00 | 6570 | 443 | -20.4 | -21.4 | |||
| 2001-09-01T00:00 | 6633 | 439 | -20.8 | -21.8 | |||
| 2001-09-01T00:00 | 6700 | 435 | -21.3 | -22.2 | 174 | 10 | |
| 2001-09-01T00:00 | 6760 | 432 | -21.9 | -22.8 | |||
| 2001-09-01T00:00 | 6822 | 428 | -22.4 | -23.3 | |||
| 2001-09-01T00:00 | 6889 | 424 | -22.9 | -23.8 | 178 | 11 | |
| 2001-09-01T00:00 | 6957 | 420 | -23.6 | -24.4 | |||
| 2001-09-01T00:00 | 7024 | 417 | -24.1 | -24.9 | |||
| 2001-09-01T00:00 | 7094 | 413 | -24.6 | -25.4 | 182 | 12 | |
| 2001-09-01T00:00 | 7167 | 409 | -25.2 | -26.0 | |||
| 2001-09-01T00:00 | 7241 | 404 | -26.0 | -27.0 | |||
| 2001-09-01T00:00 | 7315 | 400 | -26.8 | -29.0 | 185 | 13 | |
| 2001-09-01T00:00 | 7387 | 396 | -27.8 | -31.5 | |||
| 2001-09-01T00:00 | 7454 | 393 | -28.4 | -33.8 | |||
| 2001-09-01T00:00 | 7517 | 389 | -28.8 | -35.9 | 186 | 13 | |
| 2001-09-01T00:00 | 7578 | 386 | -29.2 | -36.9 | |||
| 2001-09-01T00:00 | 7642 | 382 | -29.5 | -36.6 | |||
| 2001-09-01T00:00 | 7708 | 379 | -30.0 | -36.5 | 185 | 13 | |
| 2001-09-01T00:00 | 7773 | 375 | -30.3 | -38.3 | |||
| 2001-09-01T00:00 | 7833 | 372 | -30.7 | -40.3 | |||
| 2001-09-01T00:00 | 7892 | 369 | -31.1 | -42.3 | 184 | 13 | |
| 2001-09-01T00:00 | 7949 | 366 | -31.4 | -39.0 | |||
| 2001-09-01T00:00 | 8008 | 363 | -31.8 | -35.5 | |||
| 2001-09-01T00:00 | 8070 | 360 | -32.2 | -35.7 | 186 | 14 | |
| 2001-09-01T00:00 | 8130 | 357 | -32.6 | -36.0 | |||
| 2001-09-01T00:00 | 8189 | 354 | -33.1 | -36.8 | |||
| 2001-09-01T00:00 | 8249 | 351 | -33.6 | -37.6 | 189 | 14 | |
| 2001-09-01T00:00 | 8319 | 347 | -34.3 | -38.1 | |||
| 2001-09-01T00:00 | 8387 | 344 | -35.0 | -38.4 | |||
| 2001-09-01T00:00 | 8453 | 341 | -35.6 | -38.7 | 194 | 15 | |
| 2001-09-01T00:00 | 8518 | 338 | -36.3 | -39.3 | |||
| 2001-09-01T00:00 | 8579 | 335 | -36.8 | -39.6 | |||
| 2001-09-01T00:00 | 8636 | 332 | -37.3 | -40.0 | 198 | 15 | |
| 2001-09-01T00:00 | 8704 | 329 | -38.0 | -40.8 | |||
| 2001-09-01T00:00 | 8767 | 326 | -38.6 | -41.4 | |||
| 2001-09-01T00:00 | 8828 | 323 | -39.2 | -42.0 | 201 | 16 | |
| 2001-09-01T00:00 | 8888 | 320 | -39.7 | -42.5 | |||
| 2001-09-01T00:00 | 8949 | 317 | -40.2 | -42.9 | |||
| 2001-09-01T00:00 | 9014 | 314 | -40.7 | -43.6 | 203 | 17 | |
| 2001-09-01T00:00 | 9082 | 311 | -41.2 | -45.0 | |||
| 2001-09-01T00:00 | 9150 | 308 | -41.7 | -45.9 | |||
| 2001-09-01T00:00 | 9213 | 305 | -42.3 | -46.5 | 204 | 17 | |
| 2001-09-01T00:00 | 9276 | 302 | -42.7 | -47.0 | |||
| 2001-09-01T00:00 | 9333 | 300 | -43.3 | -47.6 | |||
| 2001-09-01T00:00 | 9391 | 297 | -43.9 | -48.1 | 204 | 16 | |
| 2001-09-01T00:00 | 9450 | 295 | -44.4 | -48.4 | |||
| 2001-09-01T00:00 | 9512 | 292 | -44.9 | -48.8 | |||
| 2001-09-01T00:00 | 9575 | 289 | -45.5 | -49.3 | 202 | 16 | |
| 2001-09-01T00:00 | 9637 | 286 | -46.1 | -49.9 | |||
| 2001-09-01T00:00 | 9697 | 284 | -46.6 | -50.3 | |||
| 2001-09-01T00:00 | 9754 | 281 | -47.1 | -50.6 | 200 | 15 | |
| 2001-09-01T00:00 | 9817 | 279 | -47.5 | -51.0 | |||
| 2001-09-01T00:00 | 9879 | 276 | -48.1 | -51.7 | |||
| 2001-09-01T00:00 | 9940 | 274 | -48.6 | -52.2 | 198 | 15 | |
| 2001-09-01T00:00 | 10001 | 271 | -49.1 | -52.8 | |||
| 2001-09-01T00:00 | 10064 | 268 | -49.6 | -53.2 | |||
| 2001-09-01T00:00 | 10128 | 266 | -50.2 | -53.9 | 197 | 16 | |
| 2001-09-01T00:00 | 10182 | 264 | -50.7 | -54.2 | |||
| 2001-09-01T00:00 | 10234 | 262 | -51.2 | -54.5 | |||
| 2001-09-01T00:00 | 10285 | 260 | -51.7 | -55.0 | 197 | 17 | |
| 2001-09-01T00:00 | 10336 | 257 | -52.0 | -55.4 | |||
| 2001-09-01T00:00 | 10389 | 255 | -52.5 | -55.9 | |||
| 2001-09-01T00:00 | 10446 | 253 | -52.9 | -56.3 | 198 | 17 | |
| 2001-09-01T00:00 | 10514 | 250 | -53.4 | -56.7 | |||
| 2001-09-01T00:00 | 10579 | 248 | -53.9 | -57.2 | |||
| 2001-09-01T00:00 | 10641 | 246 | -54.3 | -57.6 | 200 | 17 | |
| 2001-09-01T00:00 | 10697 | 243 | -54.7 | -58.0 | |||
| 2001-09-01T00:00 | 10753 | 241 | -55.1 | -58.4 | |||
| 2001-09-01T00:00 | 10807 | 239 | -55.5 | -59.0 | 201 | 16 | |
| 2001-09-01T00:00 | 10868 | 237 | -56.0 | -59.6 | |||
| 2001-09-01T00:00 | 10929 | 235 | -56.5 | -60.1 | |||
| 2001-09-01T00:00 | 10989 | 233 | -56.9 | -60.6 | 200 | 15 | |
| 2001-09-01T00:00 | 11051 | 230 | -57.5 | -61.1 | |||
| 2001-09-01T00:00 | 11115 | 228 | -57.9 | -61.4 | |||
| 2001-09-01T00:00 | 11180 | 226 | -58.2 | -61.7 | 197 | 16 | |
| 2001-09-01T00:00 | 11243 | 223 | -58.5 | -61.8 | |||
| 2001-09-01T00:00 | 11307 | 221 | -58.9 | -62.2 | |||
| 2001-09-01T00:00 | 11373 | 219 | -59.5 | -62.7 | 194 | 17 | |
| 2001-09-01T00:00 | 11435 | 217 | -60.1 | -63.2 | |||
| 2001-09-01T00:00 | 11498 | 214 | -60.3 | -63.4 | |||
| 2001-09-01T00:00 | 11557 | 212 | -59.8 | -62.8 | 193 | 19 | |
| 2001-09-01T00:00 | 11614 | 210 | -59.5 | -62.4 | |||
| 2001-09-01T00:00 | 11672 | 209 | -59.2 | ||||
| 2001-09-01T00:00 | 11732 | 207 | -58.8 | 196 | 20 | ||
| 2001-09-01T00:00 | 11793 | 205 | -57.6 | ||||
| 2001-09-01T00:00 | 11853 | 203 | -56.4 | ||||
| 2001-09-01T00:00 | 11917 | 201 | -55.1 | 203 | 20 | ||
| 2001-09-01T00:00 | 11973 | 199 | -54.6 | ||||
| 2001-09-01T00:00 | 12031 | 197 | -54.2 | ||||
| 2001-09-01T00:00 | 12089 | 195 | -53.7 | 207 | 17 | ||
| 2001-09-01T00:00 | 12145 | 194 | -53.7 | ||||
| 2001-09-01T00:00 | 12200 | 192 | -53.4 | ||||
| 2001-09-01T00:00 | 12255 | 190 | -53.0 | 206 | 15 | ||
| 2001-09-01T00:00 | 12314 | 189 | -53.0 | ||||
| 2001-09-01T00:00 | 12370 | 187 | -53.2 | ||||
| 2001-09-01T00:00 | 12422 | 185 | -53.5 | 201 | 14 | ||
| 2001-09-01T00:00 | 12471 | 184 | -53.6 | ||||
| 2001-09-01T00:00 | 12518 | 183 | -53.2 | ||||
| 2001-09-01T00:00 | 12565 | 181 | -53.0 | 200 | 14 | ||
| 2001-09-01T00:00 | 12612 | 180 | -52.8 | ||||
| 2001-09-01T00:00 | 12660 | 179 | -52.7 | ||||
| 2001-09-01T00:00 | 12705 | 177 | -52.5 | 203 | 14 | ||
| 2001-09-01T00:00 | 12754 | 176 | -52.2 | ||||
| 2001-09-01T00:00 | 12805 | 175 | -52.1 | ||||
| 2001-09-01T00:00 | 12860 | 173 | -52.0 | 209 | 14 | ||
| 2001-09-01T00:00 | 12906 | 172 | -52.0 | ||||
| 2001-09-01T00:00 | 12953 | 171 | -52.0 | ||||
| 2001-09-01T00:00 | 13002 | 170 | -52.0 | 214 | 14 | ||
| 2001-09-01T00:00 | 13053 | 168 | -52.2 | ||||
| 2001-09-01T00:00 | 13103 | 167 | -52.3 | ||||
| 2001-09-01T00:00 | 13152 | 166 | -52.3 | 217 | 13 | ||
| 2001-09-01T00:00 | 13205 | 164 | -51.9 | ||||
| 2001-09-01T00:00 | 13260 | 163 | -51.4 | ||||
| 2001-09-01T00:00 | 13317 | 161 | -51.0 | 217 | 10 | ||
| 2001-09-01T00:00 | 13374 | 160 | -50.7 | ||||
| 2001-09-01T00:00 | 13430 | 159 | -50.6 | ||||
| 2001-09-01T00:00 | 13484 | 157 | -50.7 | 211 | 8 | ||
| 2001-09-01T00:00 | 13536 | 156 | -50.7 | ||||
| 2001-09-01T00:00 | 13587 | 155 | -50.9 | ||||
| 2001-09-01T00:00 | 13638 | 154 | -51.1 | 205 | 8 | ||
| 2001-09-01T00:00 | 13687 | 153 | -50.9 | ||||
| 2001-09-01T00:00 | 13737 | 151 | -50.8 | ||||
| 2001-09-01T00:00 | 13787 | 150 | -50.7 | 202 | 9 | ||
| 2001-09-01T00:00 | 13838 | 149 | -50.8 | ||||
| 2001-09-01T00:00 | 13889 | 148 | -51.0 | ||||
| 2001-09-01T00:00 | 13938 | 147 | -51.2 | 202 | 10 | ||
| 2001-09-01T00:00 | 13988 | 146 | -51.4 | ||||
| 2001-09-01T00:00 | 14035 | 145 | -51.6 | ||||
| 2001-09-01T00:00 | 14079 | 144 | -51.7 | 204 | 10 | ||
| 2001-09-01T00:00 | 14133 | 142 | -51.7 | ||||
| 2001-09-01T00:00 | 14185 | 141 | -51.6 | ||||
| 2001-09-01T00:00 | 14235 | 140 | -51.5 | 208 | 10 | ||
| 2001-09-01T00:00 | 14282 | 139 | -51.5 | ||||
| 2001-09-01T00:00 | 14328 | 138 | -51.0 | ||||
| 2001-09-01T00:00 | 14374 | 137 | -50.7 | 215 | 10 | ||
| 2001-09-01T00:00 | 14428 | 136 | -50.9 | ||||
| 2001-09-01T00:00 | 14482 | 135 | -51.0 | ||||
| 2001-09-01T00:00 | 14533 | 134 | -51.2 | 224 | 10 | ||
| 2001-09-01T00:00 | 14582 | 133 | -51.1 | ||||
| 2001-09-01T00:00 | 14630 | 132 | -50.9 | ||||
| 2001-09-01T00:00 | 14678 | 131 | -50.9 | 231 | 9 | ||
| 2001-09-01T00:00 | 14733 | 130 | -51.0 | ||||
| 2001-09-01T00:00 | 14789 | 129 | -51.1 | ||||
| 2001-09-01T00:00 | 14843 | 128 | -51.4 | 235 | 8 | ||
| 2001-09-01T00:00 | 14896 | 127 | -51.8 | ||||
| 2001-09-01T00:00 | 14952 | 126 | -52.2 | ||||
| 2001-09-01T00:00 | 15007 | 125 | -52.6 | 237 | 8 | ||
| 2001-09-01T00:00 | 15053 | 124 | -52.8 | ||||
| 2001-09-01T00:00 | 15102 | 123 | -53.0 | ||||
| 2001-09-01T00:00 | 15153 | 122 | -53.1 | 237 | 8 | ||
| 2001-09-01T00:00 | 15204 | 121 | -53.4 | ||||
| 2001-09-01T00:00 | 15252 | 120 | -53.6 | ||||
| 2001-09-01T00:00 | 15299 | 119 | -53.9 | 238 | 8 | ||
| 2001-09-01T00:00 | 15361 | 118 | -54.3 | ||||
| 2001-09-01T00:00 | 15420 | 117 | -54.6 | ||||
| 2001-09-01T00:00 | 15475 | 116 | -54.9 | 241 | 8 | ||
| 2001-09-01T00:00 | 15528 | 115 | -54.6 | ||||
| 2001-09-01T00:00 | 15579 | 114 | -54.2 | ||||
| 2001-09-01T00:00 | 15631 | 113 | -53.9 | 241 | 7 | ||
| 2001-09-01T00:00 | 15678 | 112 | -53.7 | ||||
| 2001-09-01T00:00 | 15728 | 111 | -53.5 | ||||
| 2001-09-01T00:00 | 15783 | 110 | -53.3 | 234 | 5 | ||
| 2001-09-01T00:00 | 15837 | 109 | -53.4 | ||||
| 2001-09-01T00:00 | 15884 | 109 | -53.6 | ||||
| 2001-09-01T00:00 | 15924 | 108 | -53.8 | 226 | 4 | ||
| 2001-09-01T00:00 | 15979 | 107 | -53.9 | ||||
| 2001-09-01T00:00 | 16033 | 106 | -53.9 | ||||
| 2001-09-01T00:00 | 16086 | 105 | -53.9 | 222 | 5 | ||
| 2001-09-01T00:00 | 16138 | 104 | -53.6 | ||||
| 2001-09-01T00:00 | 16191 | 104 | -53.8 | ||||
| 2001-09-01T00:00 | 16244 | 103 | -53.9 | 225 | 5 | ||
| 2001-09-01T00:00 | 16294 | 102 | -54.0 | ||||
| 2001-09-01T00:00 | 16345 | 101 | -54.2 | ||||
| 2001-09-01T00:00 | 16391 | 100 | -54.4 | 230 | 6 | ||
| 2001-09-01T00:00 | 16438 | 100 | -54.4 | ||||
| 2001-09-01T00:00 | 16485 | 99 | -54.5 | ||||
| 2001-09-01T00:00 | 16534 | 98 | -54.5 | 235 | 8 | ||
| 2001-09-01T00:00 | 16590 | 97 | -54.4 | ||||
| 2001-09-01T00:00 | 16645 | 96 | -54.4 | ||||
| 2001-09-01T00:00 | 16699 | 96 | -54.5 | 242 | 10 | ||
| 2001-09-01T00:00 | 16753 | 95 | -54.8 | ||||
| 2001-09-01T00:00 | 16804 | 94 | -54.7 | ||||
| 2001-09-01T00:00 | 16856 | 93 | -54.5 | 250 | 11 | ||
| 2001-09-01T00:00 | 16907 | 93 | -54.3 | ||||
| 2001-09-01T00:00 | 16959 | 92 | -54.2 | ||||
| 2001-09-01T00:00 | 17010 | 91 | -54.0 | 259 | 11 | ||
| 2001-09-01T00:00 | 17067 | 90 | -53.6 | ||||
| 2001-09-01T00:00 | 17128 | 89 | -53.8 | ||||
| 2001-09-01T00:00 | 17185 | 89 | -53.9 | 268 | 10 | ||
| 2001-09-01T00:00 | 17241 | 88 | -54.1 | ||||
| 2001-09-01T00:00 | 17296 | 87 | -54.2 | ||||
| 2001-09-01T00:00 | 17352 | 86 | -54.2 | 274 | 8 | ||
| 2001-09-01T00:00 | 17411 | 86 | -54.5 | ||||
| 2001-09-01T00:00 | 17469 | 85 | -54.7 | ||||
| 2001-09-01T00:00 | 17527 | 84 | -54.8 | 275 | 7 | ||
| 2001-09-01T00:00 | 17582 | 83 | -54.8 | ||||
| 2001-09-01T00:00 | 17638 | 83 | -54.9 | ||||
| 2001-09-01T00:00 | 17694 | 82 | -55.1 | 272 | 6 | ||
| 2001-09-01T00:00 | 17749 | 81 | -55.3 | ||||
| 2001-09-01T00:00 | 17801 | 81 | -55.3 | ||||
| 2001-09-01T00:00 | 17851 | 80 | -55.5 | 270 | 5 | ||
| 2001-09-01T00:00 | 17904 | 79 | -55.3 | ||||
| 2001-09-01T00:00 | 17957 | 79 | -55.0 | ||||
| 2001-09-01T00:00 | 18009 | 78 | -54.7 | 273 | 5 | ||
| 2001-09-01T00:00 | 18059 | 77 | -54.1 | ||||
| 2001-09-01T00:00 | 18109 | 77 | -53.7 | ||||
| 2001-09-01T00:00 | 18161 | 76 | -53.7 | 280 | 5 | ||
| 2001-09-01T00:00 | 18220 | 75 | -53.8 | ||||
| 2001-09-01T00:00 | 18278 | 75 | -54.0 | ||||
| 2001-09-01T00:00 | 18333 | 74 | -54.2 | 288 | 5 | ||
| 2001-09-01T00:00 | 18385 | 74 | -54.2 | ||||
| 2001-09-01T00:00 | 18439 | 73 | -54.3 | ||||
| 2001-09-01T00:00 | 18497 | 72 | -54.3 | 294 | 4 | ||
| 2001-09-01T00:00 | 18552 | 72 | -54.3 | ||||
| 2001-09-01T00:00 | 18605 | 71 | -54.3 | ||||
| 2001-09-01T00:00 | 18662 | 70 | -54.4 | 298 | 4 | ||
| 2001-09-01T00:00 | 18716 | 70 | -54.4 | ||||
| 2001-09-01T00:00 | 18768 | 69 | -54.4 | ||||
| 2001-09-01T00:00 | 18815 | 69 | -54.4 | 301 | 4 | ||
| 2001-09-01T00:00 | 18877 | 68 | -54.5 | ||||
| 2001-09-01T00:00 | 18940 | 67 | -54.5 | ||||
| 2001-09-01T00:00 | 18998 | 67 | -54.5 | 301 | 3 | ||
| 2001-09-01T00:00 | 19052 | 66 | -54.5 | ||||
| 2001-09-01T00:00 | 19104 | 66 | -54.2 | ||||
| 2001-09-01T00:00 | 19154 | 65 | -54.1 | 295 | 3 | ||
| 2001-09-01T00:00 | 19215 | 65 | -54.1 | ||||
| 2001-09-01T00:00 | 19275 | 64 | -54.2 | ||||
| 2001-09-01T00:00 | 19333 | 63 | -54.3 | 289 | 2 | ||
| 2001-09-01T00:00 | 19387 | 63 | -54.4 | ||||
| 2001-09-01T00:00 | 19444 | 62 | -54.1 | ||||
| 2001-09-01T00:00 | 19503 | 62 | -53.9 | 281 | 2 | ||
| 2001-09-01T00:00 | 19558 | 61 | -53.9 | ||||
| 2001-09-01T00:00 | 19611 | 61 | -54.0 | ||||
| 2001-09-01T00:00 | 19666 | 60 | -54.1 | 274 | 2 | ||
| 2001-09-01T00:00 | 19721 | 60 | -54.2 | ||||
| 2001-09-01T00:00 | 19776 | 59 | -54.2 | ||||
| 2001-09-01T00:00 | 19830 | 59 | -54.2 | 265 | 3 | ||
| 2001-09-01T00:00 | 19887 | 58 | -54.2 | ||||
| 2001-09-01T00:00 | 19943 | 58 | -54.1 | ||||
| 2001-09-01T00:00 | 19999 | 57 | -54.0 | 258 | 3 | ||
| 2001-09-01T00:00 | 20053 | 57 | -53.7 | ||||
| 2001-09-01T00:00 | 20105 | 56 | -53.6 | ||||
| 2001-09-01T00:00 | 20155 | 56 | -53.5 | 258 | 4 | ||
| 2001-09-01T00:00 | 20210 | 55 | -53.5 | ||||
| 2001-09-01T00:00 | 20263 | 55 | -53.7 | ||||
| 2001-09-01T00:00 | 20316 | 54 | -53.8 | 263 | 4 | ||
| 2001-09-01T00:00 | 20373 | 54 | -53.7 | ||||
| 2001-09-01T00:00 | 20432 | 53 | -53.8 | ||||
| 2001-09-01T00:00 | 20495 | 53 | -53.9 | 269 | 5 | ||
| 2001-09-01T00:00 | 20545 | 53 | -54.0 | ||||
| 2001-09-01T00:00 | 20597 | 52 | -54.1 | ||||
| 2001-09-01T00:00 | 20649 | 52 | -54.1 | 276 | 5 | ||
| 2001-09-01T00:00 | 20700 | 51 | -54.0 | ||||
| 2001-09-01T00:00 | 20755 | 51 | -54.0 | ||||
| 2001-09-01T00:00 | 20808 | 50 | -54.0 | 281 | 5 | ||
| 2001-09-01T00:00 | 20860 | 50 | -53.9 | ||||
| 2001-09-01T00:00 | 20915 | 50 | -53.9 | ||||
| 2001-09-01T00:00 | 20971 | 49 | -53.9 | 285 | 5 | ||
| 2001-09-01T00:00 | 21028 | 49 | -54.2 | ||||
| 2001-09-01T00:00 | 21087 | 48 | -54.3 | ||||
| 2001-09-01T00:00 | 21153 | 48 | -54.3 | 289 | 5 | ||
| 2001-09-01T00:00 | 21195 | 47 | -54.3 | ||||
| 2001-09-01T00:00 | 21244 | 47 | -54.2 | ||||
| 2001-09-01T00:00 | 21298 | 47 | -54.2 | 295 | 4 | ||
| 2001-09-01T00:00 | 21356 | 46 | -54.3 | ||||
| 2001-09-01T00:00 | 21414 | 46 | -54.3 | ||||
| 2001-09-01T00:00 | 21472 | 45 | -54.3 | 307 | 4 | ||
| 2001-09-01T00:00 | 21532 | 45 | -54.2 | ||||
| 2001-09-01T00:00 | 21591 | 45 | -54.2 | ||||
| 2001-09-01T00:00 | 21649 | 44 | -54.2 | 314 | 3 | ||
| 2001-09-01T00:00 | 21708 | 44 | -54.0 | ||||
| 2001-09-01T00:00 | 21770 | 43 | -53.9 | ||||
| 2001-09-01T00:00 | 21834 | 43 | -53.9 | 313 | 2 | ||
| 2001-09-01T00:00 | 21892 | 43 | -53.9 | ||||
| 2001-09-01T00:00 | 21950 | 42 | -54.0 | ||||
| 2001-09-01T00:00 | 22008 | 42 | -54.1 | 311 | 2 | ||
| 2001-09-01T00:00 | 22070 | 41 | -54.1 | ||||
| 2001-09-01T00:00 | 22135 | 41 | -54.0 | ||||
| 2001-09-01T00:00 | 22200 | 41 | -53.8 | 309 | 2 | ||
| 2001-09-01T00:00 | 22246 | 40 | -53.6 | ||||
| 2001-09-01T00:00 | 22293 | 40 | -53.5 | ||||
| 2001-09-01T00:00 | 22343 | 40 | -53.4 | 304 | 2 | ||
| 2001-09-01T00:00 | 22395 | 39 | -53.1 | ||||
| 2001-09-01T00:00 | 22450 | 39 | -52.8 | ||||
| 2001-09-01T00:00 | 22507 | 39 | -52.4 | 297 | 2 | ||
| 2001-09-01T00:00 | 22565 | 38 | -52.1 | ||||
| 2001-09-01T00:00 | 22624 | 38 | -52.0 | ||||
| 2001-09-01T00:00 | 22679 | 38 | -51.9 | 289 | 2 | ||
| 2001-09-01T00:00 | 22731 | 37 | -51.6 | ||||
| 2001-09-01T00:00 | 22782 | 37 | -51.4 | ||||
| 2001-09-01T00:00 | 22831 | 37 | -51.3 | 282 | 2 | ||
| 2001-09-01T00:00 | 22903 | 36 | -51.4 | ||||
| 2001-09-01T00:00 | 22974 | 36 | -51.6 | ||||
| 2001-09-01T00:00 | 23040 | 36 | -51.7 | 278 | 2 | ||
| 2001-09-01T00:00 | 23102 | 35 | -51.8 | ||||
| 2001-09-01T00:00 | 23162 | 35 | -51.7 | ||||
| 2001-09-01T00:00 | 23226 | 35 | -51.6 | 277 | 2 | ||
| 2001-09-01T00:00 | 23286 | 34 | -51.6 | ||||
| 2001-09-01T00:00 | 23348 | 34 | -51.6 | ||||
| 2001-09-01T00:00 | 23412 | 34 | -51.6 | 277 | 2 | ||
| 2001-09-01T00:00 | 23474 | 33 | -51.4 | ||||
| 2001-09-01T00:00 | 23533 | 33 | -51.2 | ||||
| 2001-09-01T00:00 | 23589 | 33 | -51.0 | 278 | 2 | ||
| 2001-09-01T00:00 | 23647 | 32 | -51.0 | ||||
| 2001-09-01T00:00 | 23706 | 32 | -50.9 | ||||
| 2001-09-01T00:00 | 23766 | 32 | -50.7 | 275 | 2 | ||
| 2001-09-01T00:00 | 23825 | 32 | -50.5 | ||||
| 2001-09-01T00:00 | 23879 | 31 | -50.2 | ||||
| 2001-09-01T00:00 | 23930 | 31 | -50.0 | 270 | 2 | ||
| 2001-09-01T00:00 | 23999 | 31 | -49.9 | ||||
| 2001-09-01T00:00 | 24063 | 30 | -49.9 | ||||
| 2001-09-01T00:00 | 24119 | 30 | -49.8 | 264 | 2 | ||
| 2001-09-01T00:00 | 24176 | 30 | -49.4 | ||||
| 2001-09-01T00:00 | 24242 | 30 | -49.1 | ||||
| 2001-09-01T00:00 | 24316 | 29 | -48.8 | 258 | 2 | ||
| 2001-09-01T00:00 | 24369 | 29 | -48.6 | ||||
| 2001-09-01T00:00 | 24426 | 29 | -48.4 | ||||
| 2001-09-01T00:00 | 24487 | 29 | -48.3 | 251 | 2 | ||
| 2001-09-01T00:00 | 24553 | 28 | -48.1 | ||||
| 2001-09-01T00:00 | 24618 | 28 | -48.1 | ||||
| 2001-09-01T00:00 | 24685 | 28 | -48.2 | 241 | 1 | ||
| 2001-09-01T00:00 | 24751 | 27 | -48.4 | ||||
| 2001-09-01T00:00 | 24819 | 27 | -48.7 | ||||
| 2001-09-01T00:00 | 24883 | 27 | -48.9 | 229 | 1 | ||
| 2001-09-01T00:00 | 24945 | 27 | -49.1 | ||||
| 2001-09-01T00:00 | 25013 | 26 | -49.2 | ||||
| 2001-09-01T00:00 | 25088 | 26 | -49.1 | 210 | 1 | ||
| 2001-09-01T00:00 | 25142 | 26 | -49.0 | ||||
| 2001-09-01T00:00 | 25202 | 26 | -48.8 | ||||
| 2001-09-01T00:00 | 25266 | 25 | -48.5 | 199 | 1 | ||
| 2001-09-01T00:00 | 25332 | 25 | -48.3 | ||||
| 2001-09-01T00:00 | 25394 | 25 | -48.2 | ||||
| 2001-09-01T00:00 | 25454 | 25 | -48.1 | 192 | 2 | ||
| 2001-09-01T00:00 | 25510 | 24 | -47.9 | ||||
| 2001-09-01T00:00 | 25567 | 24 | -47.7 | ||||
| 2001-09-01T00:00 | 25626 | 24 | -47.5 | 189 | 2 | ||
| 2001-09-01T00:00 | 25688 | 24 | -47.2 | ||||
| 2001-09-01T00:00 | 25751 | 24 | -46.7 | ||||
| 2001-09-01T00:00 | 25815 | 23 | -46.6 | 183 | 3 | ||
| 2001-09-01T00:00 | 25877 | 23 | -46.6 | ||||
| 2001-09-01T00:00 | 25937 | 23 | -46.7 | ||||
| 2001-09-01T00:00 | 26002 | 23 | -46.6 | 180 | 3 | ||
| 2001-09-01T00:00 | 26068 | 22 | -46.5 | ||||
| 2001-09-01T00:00 | 26134 | 22 | -46.4 | ||||
| 2001-09-01T00:00 | 26186 | 22 | -46.3 | 188 | 4 | ||
| 2001-09-01T00:00 | 26241 | 22 | -46.2 | ||||
| 2001-09-01T00:00 | 26300 | 22 | -46.1 | ||||
| 2001-09-01T00:00 | 26365 | 22 | -45.9 | 196 | 5 | ||
| 2001-09-01T00:00 | 26431 | 21 | -45.8 | ||||
| 2001-09-01T00:00 | 26497 | 21 | -45.6 | ||||
| 2001-09-01T00:00 | 26557 | 21 | -45.3 | 199 | 7 | ||
| 2001-09-01T00:00 | 26635 | 21 | -45.1 | ||||
| 2001-09-01T00:00 | 26713 | 20 | -44.9 | ||||
| 2001-09-01T00:00 | 26788 | 20 | -44.8 | 200 | 7 | ||
| 2001-09-01T00:00 | 26859 | 20 | -44.6 | ||||
| 2001-09-01T00:00 | 26929 | 20 | -44.8 | ||||
| 2001-09-01T00:00 | 27004 | 20 | -45.0 | 201 | 8 | ||
| 2001-09-01T00:00 | 27080 | 19 | -45.1 | ||||
| 2001-09-01T00:00 | 27147 | 19 | -45.1 | ||||
| 2001-09-01T00:00 | 27208 | 19 | -44.9 | 203 | 9 | ||
| 2001-09-01T00:00 | 27268 | 19 | -44.8 | ||||
| 2001-09-01T00:00 | 27337 | 19 | -44.8 | ||||
| 2001-09-01T00:00 | 27407 | 18 | -44.7 | 211 | 9 | ||
| 2001-09-01T00:00 | 27477 | 18 | -44.7 | ||||
| 2001-09-01T00:00 | 27544 | 18 | -44.7 | ||||
| 2001-09-01T00:00 | 27604 | 18 | -44.7 | 223 | 9 | ||
| 2001-09-01T00:00 | 27666 | 18 | -44.9 | ||||
| 2001-09-01T00:00 | 27735 | 18 | -44.9 | ||||
| 2001-09-01T00:00 | 27805 | 17 | -44.9 | 238 | 9 | ||
| 2001-09-01T00:00 | 27880 | 17 | -44.8 | ||||
| 2001-09-01T00:00 | 27952 | 17 | -44.7 | ||||
| 2001-09-01T00:00 | 28021 | 17 | -44.5 | 250 | 9 | ||
| 2001-09-01T00:00 | 28088 | 17 | -44.2 | ||||
| 2001-09-01T00:00 | 28150 | 16 | -44.0 | ||||
| 2001-09-01T00:00 | 28212 | 16 | -43.7 | 257 | 9 | ||
| 2001-09-01T00:00 | 28281 | 16 | -43.5 | ||||
| 2001-09-01T00:00 | 28353 | 16 | -43.2 | ||||
| 2001-09-01T00:00 | 28429 | 16 | -43.1 | 260 | 9 | ||
| 2001-09-01T00:00 | 28493 | 16 | -43.1 | ||||
| 2001-09-01T00:00 | 28557 | 16 | -43.0 | ||||
| 2001-09-01T00:00 | 28620 | 15 | -42.9 | 262 | 9 | ||
| 2001-09-01T00:00 | 28682 | 15 | -42.7 | ||||
| 2001-09-01T00:00 | 28748 | 15 | -42.5 | ||||
| 2001-09-01T00:00 | 28819 | 15 | -42.2 | 267 | 10 | ||
| 2001-09-01T00:00 | 28890 | 15 | -42.3 | ||||
| 2001-09-01T00:00 | 28953 | 15 | -42.0 | ||||
| 2001-09-01T00:00 | 29006 | 15 | -41.7 | 275 | 9 | ||
| 2001-09-01T00:00 | 29077 | 14 | -41.5 | ||||
| 2001-09-01T00:00 | 29148 | 14 | -41.4 | ||||
| 2001-09-01T00:00 | 29218 | 14 | -41.4 | 281 | 8 | ||
| 2001-09-01T00:00 | 29279 | 14 | -41.2 | ||||
| 2001-09-01T00:00 | 29336 | 14 | -41.2 | ||||
| 2001-09-01T00:00 | 29413 | 14 | -41.1 | 278 | 5 | ||
| 2001-09-01T00:00 | 29488 | 14 | -40.9 | ||||
| 2001-09-01T00:00 | 29555 | 13 | -40.6 | ||||
| 2001-09-01T00:00 | 29613 | 13 | -40.3 | 268 | 3 | ||
| 2001-09-01T00:00 | 29674 | 13 | -40.2 | ||||
| 2001-09-01T00:00 | 29749 | 13 | -40.3 | ||||
| 2001-09-01T00:00 | 29838 | 13 | -40.3 | 230 | 3 | ||
| 2001-09-01T00:00 | 29891 | 13 | -40.3 | ||||
| 2001-09-01T00:00 | 29949 | 13 | -40.3 | ||||
| 2001-09-01T00:00 | 30014 | 13 | -40.4 | 181 | 4 | ||
| 2001-09-01T00:00 | 30082 | 12 | -40.4 | ||||
| 2001-09-01T00:00 | 30142 | 12 | -40.4 | ||||
| 2001-09-01T00:00 | 30292 | 12 | -40.2 | ||||
| 2001-09-01T00:00 | 30380 | 12 | -40.1 | ||||
| 2001-09-01T00:00 | 30452 | 12 | -40.1 | 197 | 6 | ||
| 2001-09-01T00:00 | 30512 | 12 | -40.1 | ||||
| 2001-09-01T00:00 | 30572 | 12 | -39.8 | ||||
| 2001-09-01T00:00 | 30640 | 11 | -39.5 | 206 | 6 | ||
| 2001-09-01T00:00 | 30705 | 11 | -39.3 | ||||
| 2001-09-01T00:00 | 30776 | 11 | -39.4 | ||||
| 2001-09-01T00:00 | 30844 | 11 | -39.6 | 210 | 5 | ||
| 2001-09-01T00:00 | 30914 | 11 | -39.7 | ||||
| 2001-09-01T00:00 | 30983 | 11 | -39.7 | ||||
| 2001-09-01T00:00 | 31056 | 11 | -39.6 | 209 | 5 | ||
| 2001-09-01T00:00 | 31134 | 11 | -39.6 | ||||
| 2001-09-01T00:00 | 31221 | 11 | -39.8 | ||||
| 2001-09-01T00:00 | 31305 | 10 | -39.9 | 206 | 5 | ||
| 2001-09-01T00:00 | 31380 | 10 | -39.9 | ||||
| 2001-09-01T00:00 | 31441 | 10 | -40.0 | ||||
| 2001-09-01T00:00 | 31493 | 10 | -39.9 | 205 | 4 | ||
| 2001-09-01T00:00 | 31633 | 10 | -39.3 | ||||
| 2001-09-01T00:00 | 31727 | 10 | -38.8 | 207 | 3 | ||
| 2001-09-01T00:00 | 31814 | 10 | -38.2 | ||||
| 2001-09-01T00:00 | 31890 | 10 | -37.8 | ||||
| 2001-09-01T00:00 | 31952 | 9 | -37.5 | 206 | 2 | ||
| 2001-09-01T00:00 | 32014 | 9 | -37.3 | ||||
| 2001-09-01T00:00 | 32077 | 9 | -37.0 | ||||
| 2001-09-01T00:00 | 32139 | 9 | -36.8 | 199 | 2 | ||
| 2001-09-01T00:00 | 32265 | 9 | -36.3 | ||||
| 2001-09-01T00:00 | 32334 | 9 | -36.0 | 187 | 1 | ||
| 2001-09-01T00:00 | 32415 | 9 | -36.0 | ||||
| 2001-09-01T00:00 | 32480 | 9 | -36.1 | ||||
| 2001-09-01T00:00 | 32546 | 9 | -36.3 | 171 | 2 | ||
| 2001-09-01T00:00 | 32617 | 9 | -36.4 | ||||
| 2001-09-01T00:00 | 32690 | 8 | -36.5 | ||||
| 2001-09-01T00:00 | 32828 | 8 | -36.8 | ||||
| 2001-09-01T00:00 | 32904 | 8 | -37.0 | ||||
| 2001-09-01T00:00 | 32990 | 8 | -37.3 | 152 | 2 | ||
| 2001-09-01T00:00 | 33080 | 8 | -37.5 | ||||
| 2001-09-01T00:00 | 33164 | 8 | -37.5 | ||||
| 2001-09-01T00:00 | 33241 | 8 | -37.5 | 146 | 3 | ||
| 2001-09-01T00:00 | 33285 | 8 | -37.3 | ||||
| 2001-09-01T00:00 | 33383 | 8 | -37.1 | 153 | 5 | ||
| 2001-09-01T00:00 | 33518 | 8 | -37.4 | ||||
| 2001-09-01T00:00 | 33585 | 7 | -37.6 | 164 | 6 | ||
| 2001-09-01T00:00 | 33654 | 7 | -37.7 | ||||
| 2001-09-01T00:00 | 33802 | 7 | -38.0 | 175 | 5 | ||
| 2001-09-01T00:00 | 33880 | 7 | -38.2 | ||||
| 2001-09-01T00:00 | 33955 | 7 | -38.4 | ||||
| 2001-09-01T00:00 | 34096 | 7 | -38.6 | ||||
| 2001-09-01T00:00 | 34160 | 7 | -38.5 | ||||
| 2001-09-01T00:00 | 34267 | 7 | -38.1 | ||||
| 2001-09-01T00:00 | 34370 | 7 | -37.3 | 56 | 2 | ||
| 2001-09-01T00:00 | 34486 | 7 | -36.7 | ||||
| 2001-09-01T00:00 | 34556 | 6 | -36.3 | ||||
| 2001-09-01T00:00 | 34685 | 6 | -35.4 | ||||
| 2001-09-01T00:00 | 34845 | 6 | -34.9 | ||||
| 2001-09-01T00:00 | 34935 | 6 | -34.8 | ||||
| 2001-09-01T00:00 | 35024 | 6 | -34.9 | ||||
| 2001-09-01T06:00 | 112 | 995 | 14.4 | 14.2 | |||
| 2001-09-01T06:00 | 168 | 989 | 14.4 | 13.1 | |||
| 2001-09-01T06:00 | 217 | 983 | 14.4 | 13.0 | |||
| 2001-09-01T06:00 | 267 | 977 | 14.4 | 12.8 | |||
| 2001-09-01T06:00 | 317 | 972 | 14.4 | 12.6 | |||
| 2001-09-01T06:00 | 366 | 966 | 14.3 | 12.5 | |||
| 2001-09-01T06:00 | 416 | 960 | 14.2 | 12.2 | |||
| 2001-09-01T06:00 | 467 | 954 | 13.7 | 11.9 | |||
| 2001-09-01T06:00 | 519 | 949 | 13.3 | 11.5 | |||
| 2001-09-01T06:00 | 568 | 943 | 12.9 | 11.3 | |||
| 2001-09-01T06:00 | 616 | 938 | 12.4 | 11.0 | |||
| 2001-09-01T06:00 | 667 | 932 | 12.0 | 10.7 | |||
| 2001-09-01T06:00 | 720 | 926 | 11.6 | 10.5 | |||
| 2001-09-01T06:00 | 765 | 921 | 11.3 | 10.4 | |||
| 2001-09-01T06:00 | 814 | 916 | 11.0 | 10.1 | |||
| 2001-09-01T06:00 | 861 | 911 | 10.7 | 9.8 | |||
| 2001-09-01T06:00 | 910 | 905 | 10.4 | 9.6 | |||
| 2001-09-01T06:00 | 961 | 900 | 10.2 | 9.0 | |||
| 2001-09-01T06:00 | 993 | 896 | 9.8 | 8.9 | |||
| 2001-09-01T06:00 | 1026 | 893 | 9.5 | 8.3 | |||
| 2001-09-01T06:00 | 1062 | 889 | 9.5 | 8.1 | |||
| 2001-09-01T06:00 | 1101 | 885 | 9.6 | 6.0 | |||
| 2001-09-01T06:00 | 1146 | 880 | 9.7 | 6.1 | |||
| 2001-09-01T06:00 | 1192 | 875 | 9.4 | 5.8 | |||
| 2001-09-01T06:00 | 1243 | 870 | 9.1 | 5.7 | |||
| 2001-09-01T06:00 | 1302 | 864 | 8.8 | 5.2 | |||
| 2001-09-01T06:00 | 1358 | 858 | 8.5 | 5.1 | |||
| 2001-09-01T06:00 | 1415 | 852 | 8.2 | 5.1 | |||
| 2001-09-01T06:00 | 1467 | 847 | 7.9 | 5.2 | |||
| 2001-09-01T06:00 | 1520 | 841 | 7.3 | 5.0 | |||
| 2001-09-01T06:00 | 1570 | 836 | 6.9 | 4.7 | |||
| 2001-09-01T06:00 | 1624 | 831 | 6.4 | 4.9 | |||
| 2001-09-01T06:00 | 1678 | 825 | 6.0 | 5.4 | |||
| 2001-09-01T06:00 | 1728 | 820 | 5.6 | 4.4 | |||
| 2001-09-01T06:00 | 1782 | 815 | 5.5 | 3.4 | |||
| 2001-09-01T06:00 | 1832 | 810 | 5.4 | 3.4 | |||
| 2001-09-01T06:00 | 1882 | 805 | 5.3 | 3.5 | |||
| 2001-09-01T06:00 | 1932 | 800 | 5.0 | 3.5 | |||
| 2001-09-01T06:00 | 1980 | 795 | 4.8 | 4.5 | |||
| 2001-09-01T06:00 | 2026 | 791 | 4.7 | 4.4 | |||
| 2001-09-01T06:00 | 2074 | 786 | 4.5 | 4.2 | |||
| 2001-09-01T06:00 | 2126 | 781 | 4.2 | 3.9 | |||
| 2001-09-01T06:00 | 2179 | 776 | 3.9 | 3.6 | |||
| 2001-09-01T06:00 | 2237 | 771 | 3.5 | 3.2 | |||
| 2001-09-01T06:00 | 2293 | 765 | 3.2 | 2.9 | |||
| 2001-09-01T06:00 | 2346 | 760 | 2.8 | 2.5 | |||
| 2001-09-01T06:00 | 2401 | 755 | 2.4 | 2.1 | |||
| 2001-09-01T06:00 | 2457 | 750 | 2.0 | 1.7 | |||
| 2001-09-01T06:00 | 2512 | 745 | 1.7 | 1.4 | |||
| 2001-09-01T06:00 | 2555 | 741 | 1.4 | 1.1 | |||
| 2001-09-01T06:00 | 2601 | 737 | 1.1 | 0.8 | |||
| 2001-09-01T06:00 | 2648 | 733 | 0.9 | 0.6 | |||
| 2001-09-01T06:00 | 2699 | 728 | 0.5 | 0.2 | |||
| 2001-09-01T06:00 | 2750 | 723 | 0.5 | -0.1 | |||
| 2001-09-01T06:00 | 2805 | 718 | 0.5 | -0.4 | |||
| 2001-09-01T06:00 | 2848 | 715 | 0.3 | -0.8 | |||
| 2001-09-01T06:00 | 2897 | 710 | 0.0 | -0.9 | |||
| 2001-09-01T06:00 | 2948 | 706 | -0.2 | -1.0 | |||
| 2001-09-01T06:00 | 3005 | 701 | -0.6 | -1.4 | |||
| 2001-09-01T06:00 | 3059 | 696 | -0.8 | -1.7 | |||
| 2001-09-01T06:00 | 3114 | 691 | -1.1 | -2.1 | |||
| 2001-09-01T06:00 | 3176 | 686 | -1.5 | -2.2 | |||
| 2001-09-01T06:00 | 3238 | 680 | -2.0 | -3.0 | |||
| 2001-09-01T06:00 | 3297 | 676 | -2.5 | -3.8 | |||
| 2001-09-01T06:00 | 3355 | 671 | -3.0 | -4.4 | |||
| 2001-09-01T06:00 | 3413 | 666 | -3.2 | -5.0 | |||
| 2001-09-01T06:00 | 3471 | 661 | -3.3 | -5.6 | |||
| 2001-09-01T06:00 | 3525 | 656 | -3.4 | -5.9 | |||
| 2001-09-01T06:00 | 3579 | 652 | -3.5 | -4.4 | |||
| 2001-09-01T06:00 | 3633 | 647 | -3.7 | -4.8 | |||
| 2001-09-01T06:00 | 3685 | 643 | -4.1 | -5.5 | |||
| 2001-09-01T06:00 | 3739 | 639 | -4.4 | -6.0 | |||
| 2001-09-01T06:00 | 3797 | 634 | -4.6 | -5.6 | |||
| 2001-09-01T06:00 | 3851 | 630 | -4.7 | -5.7 | |||
| 2001-09-01T06:00 | 3905 | 626 | -4.9 | -5.9 | |||
| 2001-09-01T06:00 | 3957 | 621 | -5.3 | -6.4 | |||
| 2001-09-01T06:00 | 4010 | 617 | -5.5 | -6.6 | |||
| 2001-09-01T06:00 | 4066 | 613 | -5.9 | -7.0 | |||
| 2001-09-01T06:00 | 4125 | 608 | -6.3 | -7.4 | |||
| 2001-09-01T06:00 | 4169 | 605 | -6.7 | -7.7 | |||
| 2001-09-01T06:00 | 4219 | 601 | -7.1 | -7.9 | |||
| 2001-09-01T06:00 | 4270 | 597 | -7.4 | -8.2 | |||
| 2001-09-01T06:00 | 4327 | 593 | -7.8 | -8.6 | |||
| 2001-09-01T06:00 | 4380 | 589 | -8.3 | -9.4 | |||
| 2001-09-01T06:00 | 4431 | 585 | -8.4 | -8.8 | |||
| 2001-09-01T06:00 | 4473 | 582 | -8.4 | -8.6 | |||
| 2001-09-01T06:00 | 4519 | 578 | -8.5 | -8.7 | |||
| 2001-09-01T06:00 | 4566 | 575 | -8.7 | -8.9 | |||
| 2001-09-01T06:00 | 4619 | 571 | -9.0 | -9.2 | |||
| 2001-09-01T06:00 | 4676 | 567 | -9.3 | -9.5 | |||
| 2001-09-01T06:00 | 4732 | 562 | -9.7 | -9.9 | |||
| 2001-09-01T06:00 | 4785 | 559 | -10.0 | -10.2 | |||
| 2001-09-01T06:00 | 4836 | 555 | -10.3 | -10.5 | |||
| 2001-09-01T06:00 | 4887 | 551 | -10.7 | -11.0 | |||
| 2001-09-01T06:00 | 4938 | 548 | -11.0 | -11.5 | |||
| 2001-09-01T06:00 | 4990 | 544 | -11.4 | -11.9 | |||
| 2001-09-01T06:00 | 5044 | 540 | -11.7 | -12.4 | |||
| 2001-09-01T06:00 | 5097 | 536 | -12.1 | -13.0 | |||
| 2001-09-01T06:00 | 5149 | 533 | -12.5 | -13.4 | |||
| 2001-09-01T06:00 | 5201 | 529 | -12.9 | -13.8 | |||
| 2001-09-01T06:00 | 5253 | 526 | -13.2 | ||||
| 2001-09-01T06:00 | 5305 | 522 | -13.6 | -14.4 | |||
| 2001-09-01T06:00 | 5356 | 519 | -14.0 | -14.7 | |||
| 2001-09-01T06:00 | 5413 | 515 | -14.4 | -15.0 | |||
| 2001-09-01T06:00 | 5470 | 511 | -14.8 | -15.2 | |||
| 2001-09-01T06:00 | 5528 | 507 | -15.2 | -15.6 | |||
| 2001-09-01T06:00 | 5587 | 503 | -15.5 | -15.9 | |||
| 2001-09-01T06:00 | 5648 | 499 | -15.8 | -16.4 | |||
| 2001-09-01T06:00 | 5708 | 495 | -16.2 | -16.9 | |||
| 2001-09-01T06:00 | 5765 | 491 | -16.6 | -17.5 | |||
| 2001-09-01T06:00 | 5824 | 487 | -17.0 | -18.2 | |||
| 2001-09-01T06:00 | 5881 | 484 | -17.3 | -18.9 | |||
| 2001-09-01T06:00 | 5939 | 480 | -17.8 | -19.5 | |||
| 2001-09-01T06:00 | 6001 | 476 | -18.2 | -20.0 | |||
| 2001-09-01T06:00 | 6056 | 473 | -18.6 | -20.4 | |||
| 2001-09-01T06:00 | 6112 | 469 | -19.0 | -20.8 | |||
| 2001-09-01T06:00 | 6167 | 466 | -19.3 | -21.2 | |||
| 2001-09-01T06:00 | 6221 | 462 | -19.5 | ||||
| 2001-09-01T06:00 | 6278 | 459 | -19.6 | -21.7 | |||
| 2001-09-01T06:00 | 6336 | 455 | -20.0 | -21.8 | |||
| 2001-09-01T06:00 | 6394 | 452 | -20.3 | -22.0 | |||
| 2001-09-01T06:00 | 6459 | 448 | -20.5 | -22.8 | |||
| 2001-09-01T06:00 | 6526 | 444 | -20.9 | -23.3 | |||
| 2001-09-01T06:00 | 6594 | 439 | -21.4 | -23.9 | |||
| 2001-09-01T06:00 | 6661 | 436 | -21.9 | -24.4 | |||
| 2001-09-01T06:00 | 6725 | 432 | -22.3 | -24.8 | |||
| 2001-09-01T06:00 | 6786 | 428 | -22.7 | -25.1 | |||
| 2001-09-01T06:00 | 6840 | 425 | -23.2 | -25.6 | |||
| 2001-09-01T06:00 | 6897 | 422 | -23.6 | -26.0 | |||
| 2001-09-01T06:00 | 6956 | 418 | -24.0 | -26.4 | |||
| 2001-09-01T06:00 | 7016 | 415 | -24.6 | -26.8 | |||
| 2001-09-01T06:00 | 7077 | 411 | -25.1 | -27.3 | |||
| 2001-09-01T06:00 | 7137 | 408 | -25.6 | -27.7 | |||
| 2001-09-01T06:00 | 7187 | 405 | -26.0 | -28.0 | |||
| 2001-09-01T06:00 | 7238 | 402 | -26.5 | -28.5 | |||
| 2001-09-01T06:00 | 7291 | 399 | -27.0 | -28.9 | |||
| 2001-09-01T06:00 | 7343 | 397 | -27.4 | -29.5 | |||
| 2001-09-01T06:00 | 7393 | 394 | -27.9 | -30.4 | |||
| 2001-09-01T06:00 | 7442 | 391 | -28.3 | -31.2 | |||
| 2001-09-01T06:00 | 7501 | 388 | -28.8 | -31.7 | |||
| 2001-09-01T06:00 | 7559 | 385 | -29.4 | -32.3 | |||
| 2001-09-01T06:00 | 7613 | 382 | -29.8 | -32.5 | |||
| 2001-09-01T06:00 | 7663 | 379 | -30.3 | -33.0 | |||
| 2001-09-01T06:00 | 7710 | 377 | -30.7 | -33.3 | |||
| 2001-09-01T06:00 | 7777 | 373 | -31.2 | -33.7 | |||
| 2001-09-01T06:00 | 7843 | 370 | -31.7 | -34.0 | |||
| 2001-09-01T06:00 | 7903 | 367 | -32.2 | -34.1 | |||
| 2001-09-01T06:00 | 7960 | 364 | -32.6 | -34.2 | |||
| 2001-09-01T06:00 | 8019 | 361 | -33.0 | -35.1 | |||
| 2001-09-01T06:00 | 8077 | 358 | -33.6 | -36.1 | |||
| 2001-09-01T06:00 | 8133 | 355 | -34.1 | -37.1 | |||
| 2001-09-01T06:00 | 8192 | 352 | -34.5 | -37.8 | |||
| 2001-09-01T06:00 | 8250 | 349 | -34.9 | -38.3 | |||
| 2001-09-01T06:00 | 8311 | 346 | -35.5 | -39.1 | |||
| 2001-09-01T06:00 | 8372 | 343 | -35.9 | -39.6 | |||
| 2001-09-01T06:00 | 8431 | 340 | -36.3 | -40.3 | |||
| 2001-09-01T06:00 | 8492 | 337 | -36.9 | -41.0 | |||
| 2001-09-01T06:00 | 8556 | 334 | -37.4 | -41.5 | |||
| 2001-09-01T06:00 | 8620 | 331 | -38.0 | -42.1 | |||
| 2001-09-01T06:00 | 8684 | 328 | -38.5 | -42.6 | |||
| 2001-09-01T06:00 | 8744 | 325 | -39.2 | -43.1 | |||
| 2001-09-01T06:00 | 8803 | 322 | -39.7 | -43.5 | |||
| 2001-09-01T06:00 | 8863 | 319 | -40.2 | -43.8 | |||
| 2001-09-01T06:00 | 8931 | 316 | -40.8 | -44.3 | |||
| 2001-09-01T06:00 | 8996 | 313 | -41.3 | -44.9 | |||
| 2001-09-01T06:00 | 9060 | 310 | -41.9 | -45.6 | |||
| 2001-09-01T06:00 | 9121 | 307 | -42.4 | -46.1 | |||
| 2001-09-01T06:00 | 9184 | 304 | -42.9 | -46.3 | |||
| 2001-09-01T06:00 | 9250 | 302 | -43.5 | -47.0 | |||
| 2001-09-01T06:00 | 9314 | 299 | -44.1 | -47.6 | |||
| 2001-09-01T06:00 | 9377 | 296 | -44.6 | -48.3 | |||
| 2001-09-01T06:00 | 9439 | 293 | -45.1 | -49.1 | |||
| 2001-09-01T06:00 | 9501 | 290 | -45.7 | -49.9 | |||
| 2001-09-01T06:00 | 9561 | 288 | -46.3 | -50.6 | |||
| 2001-09-01T06:00 | 9620 | 285 | -46.9 | -51.2 | |||
| 2001-09-01T06:00 | 9687 | 282 | -47.5 | -51.8 | |||
| 2001-09-01T06:00 | 9752 | 280 | -48.1 | -52.4 | |||
| 2001-09-01T06:00 | 9815 | 277 | -48.6 | ||||
| 2001-09-01T06:00 | 9880 | 274 | -49.3 | -53.4 | |||
| 2001-09-01T06:00 | 9949 | 271 | -49.9 | -54.0 | |||
| 2001-09-01T06:00 | 10018 | 269 | -50.5 | -54.7 | |||
| 2001-09-01T06:00 | 10070 | 266 | -51.0 | -55.0 | |||
| 2001-09-01T06:00 | 10130 | 264 | -51.6 | -55.7 | |||
| 2001-09-01T06:00 | 10200 | 261 | -52.2 | -56.4 | |||
| 2001-09-01T06:00 | 10280 | 258 | -53.0 | -57.2 | |||
| 2001-09-01T06:00 | 10365 | 254 | -53.7 | -57.9 | |||
| 2001-09-01T06:00 | 10450 | 251 | -54.4 | -58.7 | |||
| 2001-09-01T06:00 | 10515 | 249 | -55.1 | -59.5 | |||
| 2001-09-01T06:00 | 10584 | 246 | -55.7 | -59.9 | |||
| 2001-09-01T06:00 | 10652 | 243 | -56.2 | -60.6 | |||
| 2001-09-01T06:00 | 10722 | 241 | -56.8 | -61.1 | |||
| 2001-09-01T06:00 | 10793 | 238 | -57.5 | -61.7 | |||
| 2001-09-01T06:00 | 10862 | 235 | -58.1 | -62.4 | |||
| 2001-09-01T06:00 | 10928 | 233 | -58.7 | -63.0 | |||
| 2001-09-01T06:00 | 10992 | 231 | -59.2 | ||||
| 2001-09-01T06:00 | 11055 | 228 | -59.6 | ||||
| 2001-09-01T06:00 | 11119 | 226 | -59.6 | ||||
| 2001-09-01T06:00 | 11182 | 224 | -58.9 | ||||
| 2001-09-01T06:00 | 11243 | 221 | -58.2 | ||||
| 2001-09-01T06:00 | 11317 | 219 | -57.7 | ||||
| 2001-09-01T06:00 | 11386 | 217 | -58.0 | ||||
| 2001-09-01T06:00 | 11448 | 214 | -58.2 | ||||
| 2001-09-01T06:00 | 11505 | 212 | -58.4 | ||||
| 2001-09-01T06:00 | 11558 | 211 | -58.6 | ||||
| 2001-09-01T06:00 | 11615 | 209 | -58.8 | ||||
| 2001-09-01T06:00 | 11669 | 207 | -58.5 | ||||
| 2001-09-01T06:00 | 11725 | 205 | -58.1 | ||||
| 2001-09-01T06:00 | 11786 | 203 | -56.3 | ||||
| 2001-09-01T06:00 | 11843 | 201 | -54.6 | ||||
| 2001-09-01T06:00 | 11895 | 200 | -53.0 | ||||
| 2001-09-01T06:00 | 11939 | 198 | -52.7 | ||||
| 2001-09-01T06:00 | 11991 | 197 | -52.6 | ||||
| 2001-09-01T06:00 | 12042 | 195 | -52.4 | ||||
| 2001-09-01T06:00 | 12090 | 194 | -52.1 | ||||
| 2001-09-01T06:00 | 12143 | 192 | -52.1 | ||||
| 2001-09-01T06:00 | 12193 | 191 | -52.2 | ||||
| 2001-09-01T06:00 | 12242 | 189 | -52.2 | ||||
| 2001-09-01T06:00 | 12297 | 188 | -52.2 | ||||
| 2001-09-01T06:00 | 12353 | 186 | -52.3 | ||||
| 2001-09-01T06:00 | 12408 | 185 | -52.4 | ||||
| 2001-09-01T06:00 | 12462 | 183 | -52.4 | ||||
| 2001-09-01T06:00 | 12512 | 182 | -52.7 | ||||
| 2001-09-01T06:00 | 12562 | 180 | -52.5 | ||||
| 2001-09-01T06:00 | 12613 | 179 | -52.4 | ||||
| 2001-09-01T06:00 | 12662 | 177 | -52.5 | ||||
| 2001-09-01T06:00 | 12711 | 176 | -52.7 | ||||
| 2001-09-01T06:00 | 12758 | 175 | -52.2 | ||||
| 2001-09-01T06:00 | 12807 | 173 | -52.1 | ||||
| 2001-09-01T06:00 | 12858 | 172 | -52.0 | ||||
| 2001-09-01T06:00 | 12905 | 171 | -51.9 | ||||
| 2001-09-01T06:00 | 12954 | 170 | -51.9 | ||||
| 2001-09-01T06:00 | 13003 | 168 | -52.1 | ||||
| 2001-09-01T06:00 | 13050 | 167 | -52.4 | ||||
| 2001-09-01T06:00 | 13098 | 166 | -52.3 | ||||
| 2001-09-01T06:00 | 13148 | 165 | -52.1 | ||||
| 2001-09-01T06:00 | 13196 | 163 | -52.1 | ||||
| 2001-09-01T06:00 | 13245 | 162 | -52.2 | ||||
| 2001-09-01T06:00 | 13294 | 161 | -52.2 | ||||
| 2001-09-01T06:00 | 13344 | 160 | -51.9 | ||||
| 2001-09-01T06:00 | 13396 | 158 | -52.0 | ||||
| 2001-09-01T06:00 | 13450 | 157 | -52.1 | ||||
| 2001-09-01T06:00 | 13504 | 156 | -52.1 | ||||
| 2001-09-01T06:00 | 13561 | 154 | -52.1 | ||||
| 2001-09-01T06:00 | 13618 | 153 | -52.3 | ||||
| 2001-09-01T06:00 | 13676 | 152 | -52.2 | ||||
| 2001-09-01T06:00 | 13733 | 150 | -52.1 | ||||
| 2001-09-01T06:00 | 13790 | 149 | -52.2 | ||||
| 2001-09-01T06:00 | 13836 | 148 | -52.2 | ||||
| 2001-09-01T06:00 | 13881 | 147 | -52.1 | ||||
| 2001-09-01T06:00 | 13929 | 146 | -52.0 | ||||
| 2001-09-01T06:00 | 13978 | 145 | -51.9 | ||||
| 2001-09-01T06:00 | 14025 | 144 | -52.0 | ||||
| 2001-09-01T06:00 | 14073 | 143 | -52.2 | ||||
| 2001-09-01T06:00 | 14120 | 142 | -52.3 | ||||
| 2001-09-01T06:00 | 14169 | 141 | -52.4 | ||||
| 2001-09-01T06:00 | 14219 | 139 | -52.4 | ||||
| 2001-09-01T06:00 | 14268 | 138 | -52.3 | ||||
| 2001-09-01T06:00 | 14317 | 137 | -52.1 | ||||
| 2001-09-01T06:00 | 14369 | 136 | -52.1 | ||||
| 2001-09-01T06:00 | 14414 | 135 | -52.2 | ||||
| 2001-09-01T06:00 | 14461 | 134 | -52.2 | ||||
| 2001-09-01T06:00 | 14508 | 133 | -52.2 | ||||
| 2001-09-01T06:00 | 14554 | 132 | -52.5 | ||||
| 2001-09-01T06:00 | 14603 | 131 | -52.7 | ||||
| 2001-09-01T06:00 | 14655 | 130 | -52.9 | ||||
| 2001-09-01T06:00 | 14704 | 129 | -53.1 | ||||
| 2001-09-01T06:00 | 14753 | 128 | -53.3 | ||||
| 2001-09-01T06:00 | 14800 | 127 | -53.4 | ||||
| 2001-09-01T06:00 | 14848 | 127 | -53.2 | ||||
| 2001-09-01T06:00 | 14897 | 126 | -53.1 | ||||
| 2001-09-01T06:00 | 14946 | 125 | -52.9 | ||||
| 2001-09-01T06:00 | 14996 | 124 | -52.8 | ||||
| 2001-09-01T06:00 | 15048 | 123 | -52.7 | ||||
| 2001-09-01T06:00 | 15102 | 122 | -52.6 | ||||
| 2001-09-01T06:00 | 15154 | 121 | -52.5 | ||||
| 2001-09-01T06:00 | 15206 | 120 | -52.5 | ||||
| 2001-09-01T06:00 | 15255 | 119 | -52.0 | ||||
| 2001-09-01T06:00 | 15309 | 118 | -51.7 | ||||
| 2001-09-01T06:00 | 15361 | 117 | -52.0 | ||||
| 2001-09-01T06:00 | 15413 | 116 | -52.1 | ||||
| 2001-09-01T06:00 | 15464 | 115 | -52.2 | ||||
| 2001-09-01T06:00 | 15513 | 114 | -52.2 | ||||
| 2001-09-01T06:00 | 15563 | 113 | -52.3 | ||||
| 2001-09-01T06:00 | 15618 | 112 | -52.5 | ||||
| 2001-09-01T06:00 | 15672 | 111 | -52.9 | ||||
| 2001-09-01T06:00 | 15722 | 111 | -53.2 | ||||
| 2001-09-01T06:00 | 15773 | 110 | -53.5 | ||||
| 2001-09-01T06:00 | 15823 | 109 | -53.4 | ||||
| 2001-09-01T06:00 | 15875 | 108 | -53.4 | ||||
| 2001-09-01T06:00 | 15922 | 107 | -53.6 | ||||
| 2001-09-01T06:00 | 15970 | 106 | -53.8 | ||||
| 2001-09-01T06:00 | 16022 | 105 | -54.1 | ||||
| 2001-09-01T06:00 | 16072 | 105 | -54.5 | ||||
| 2001-09-01T06:00 | 16122 | 104 | -54.7 | ||||
| 2001-09-01T06:00 | 16174 | 103 | -54.4 | ||||
| 2001-09-01T06:00 | 16221 | 102 | -54.2 | ||||
| 2001-09-01T06:00 | 16271 | 101 | -54.1 | ||||
| 2001-09-01T06:00 | 16321 | 101 | -54.0 | ||||
| 2001-09-01T06:00 | 16369 | 100 | -54.1 | ||||
| 2001-09-01T06:00 | 16420 | 99 | -53.9 | ||||
| 2001-09-01T06:00 | 16468 | 98 | -53.8 | ||||
| 2001-09-01T06:00 | 16520 | 98 | -53.7 | ||||
| 2001-09-01T06:00 | 16570 | 97 | -53.8 | ||||
| 2001-09-01T06:00 | 16623 | 96 | -54.0 | ||||
| 2001-09-01T06:00 | 16675 | 95 | -54.2 | ||||
| 2001-09-01T06:00 | 16727 | 95 | -54.3 | ||||
| 2001-09-01T06:00 | 16777 | 94 | -54.3 | ||||
| 2001-09-01T06:00 | 16827 | 93 | -54.3 | ||||
| 2001-09-01T06:00 | 16878 | 92 | -54.2 | ||||
| 2001-09-01T06:00 | 16932 | 92 | -54.1 | ||||
| 2001-09-01T06:00 | 16983 | 91 | -54.1 | ||||
| 2001-09-01T06:00 | 17035 | 90 | -54.1 | ||||
| 2001-09-01T06:00 | 17088 | 89 | -54.2 | ||||
| 2001-09-01T06:00 | 17138 | 89 | -54.4 | ||||
| 2001-09-01T06:00 | 17190 | 88 | -54.4 | ||||
| 2001-09-01T06:00 | 17243 | 87 | -54.4 | ||||
| 2001-09-01T06:00 | 17295 | 87 | -54.5 | ||||
| 2001-09-01T06:00 | 17346 | 86 | -54.3 | ||||
| 2001-09-01T06:00 | 17398 | 85 | -54.0 | ||||
| 2001-09-01T06:00 | 17445 | 85 | -53.9 | ||||
| 2001-09-01T06:00 | 17497 | 84 | -53.8 | ||||
| 2001-09-01T06:00 | 17552 | 83 | -53.8 | ||||
| 2001-09-01T06:00 | 17605 | 82 | -53.9 | ||||
| 2001-09-01T06:00 | 17656 | 82 | -54.1 | ||||
| 2001-09-01T06:00 | 17707 | 81 | -54.2 | ||||
| 2001-09-01T06:00 | 17761 | 80 | -54.4 | ||||
| 2001-09-01T06:00 | 17814 | 80 | -54.5 | ||||
| 2001-09-01T06:00 | 17868 | 79 | -54.6 | ||||
| 2001-09-01T06:00 | 17921 | 78 | -54.5 | ||||
| 2001-09-01T06:00 | 17972 | 78 | -54.6 | ||||
| 2001-09-01T06:00 | 18024 | 77 | -54.7 | ||||
| 2001-09-01T06:00 | 18078 | 77 | -54.9 | ||||
| 2001-09-01T06:00 | 18135 | 76 | -55.1 | ||||
| 2001-09-01T06:00 | 18189 | 75 | -55.3 | ||||
| 2001-09-01T06:00 | 18242 | 75 | -55.4 | ||||
| 2001-09-01T06:00 | 18293 | 74 | -55.4 | ||||
| 2001-09-01T06:00 | 18343 | 73 | -55.4 | ||||
| 2001-09-01T06:00 | 18398 | 73 | -55.4 | ||||
| 2001-09-01T06:00 | 18451 | 72 | -55.3 | ||||
| 2001-09-01T06:00 | 18502 | 72 | -55.1 | ||||
| 2001-09-01T06:00 | 18554 | 71 | -54.9 | ||||
| 2001-09-01T06:00 | 18607 | 70 | -54.8 | ||||
| 2001-09-01T06:00 | 18661 | 70 | -54.7 | ||||
| 2001-09-01T06:00 | 18714 | 69 | -54.6 | ||||
| 2001-09-01T06:00 | 18766 | 69 | -54.5 | ||||
| 2001-09-01T06:00 | 18819 | 68 | -54.5 | ||||
| 2001-09-01T06:00 | 18874 | 68 | -54.6 | ||||
| 2001-09-01T06:00 | 18928 | 67 | -54.8 | ||||
| 2001-09-01T06:00 | 18983 | 66 | -55.1 | ||||
| 2001-09-01T06:00 | 19031 | 66 | -54.8 | ||||
| 2001-09-01T06:00 | 19083 | 65 | -54.4 | ||||
| 2001-09-01T06:00 | 19138 | 65 | -54.1 | ||||
| 2001-09-01T06:00 | 19192 | 64 | -53.9 | ||||
| 2001-09-01T06:00 | 19249 | 64 | -54.0 | ||||
| 2001-09-01T06:00 | 19307 | 63 | -54.0 | ||||
| 2001-09-01T06:00 | 19360 | 63 | -54.0 | ||||
| 2001-09-01T06:00 | 19415 | 62 | -54.2 | ||||
| 2001-09-01T06:00 | 19470 | 62 | -54.5 | ||||
| 2001-09-01T06:00 | 19524 | 61 | -54.5 | ||||
| 2001-09-01T06:00 | 19577 | 61 | -54.6 | ||||
| 2001-09-01T06:00 | 19629 | 60 | -54.7 | ||||
| 2001-09-01T06:00 | 19682 | 60 | -54.5 | ||||
| 2001-09-01T06:00 | 19735 | 59 | -54.4 | ||||
| 2001-09-01T06:00 | 19790 | 59 | -54.2 | ||||
| 2001-09-01T06:00 | 19843 | 58 | -54.1 | ||||
| 2001-09-01T06:00 | 19895 | 58 | -54.0 | ||||
| 2001-09-01T06:00 | 19945 | 57 | -53.9 | ||||
| 2001-09-01T06:00 | 20003 | 57 | -53.9 | ||||
| 2001-09-01T06:00 | 20061 | 56 | -53.9 | ||||
| 2001-09-01T06:00 | 20117 | 56 | -54.0 | ||||
| 2001-09-01T06:00 | 20174 | 55 | -53.8 | ||||
| 2001-09-01T06:00 | 20229 | 55 | -53.7 | ||||
| 2001-09-01T06:00 | 20282 | 54 | -53.6 | ||||
| 2001-09-01T06:00 | 20334 | 54 | -53.4 | ||||
| 2001-09-01T06:00 | 20387 | 53 | -53.1 | ||||
| 2001-09-01T06:00 | 20444 | 53 | -52.9 | ||||
| 2001-09-01T06:00 | 20499 | 52 | -53.0 | ||||
| 2001-09-01T06:00 | 20554 | 52 | -53.2 | ||||
| 2001-09-01T06:00 | 20612 | 52 | -53.3 | ||||
| 2001-09-01T06:00 | 20661 | 51 | -53.4 | ||||
| 2001-09-01T06:00 | 20713 | 51 | -53.4 | ||||
| 2001-09-01T06:00 | 20768 | 50 | -53.5 | ||||
| 2001-09-01T06:00 | 20824 | 50 | -53.5 | ||||
| 2001-09-01T06:00 | 20881 | 49 | -53.6 | ||||
| 2001-09-01T06:00 | 20937 | 49 | -53.6 | ||||
| 2001-09-01T06:00 | 20994 | 49 | -53.6 | ||||
| 2001-09-01T06:00 | 21052 | 48 | -53.7 | ||||
| 2001-09-01T06:00 | 21110 | 48 | -53.7 | ||||
| 2001-09-01T06:00 | 21168 | 47 | -53.5 | ||||
| 2001-09-01T06:00 | 21229 | 47 | -53.4 | ||||
| 2001-09-01T06:00 | 21292 | 46 | -53.3 | ||||
| 2001-09-01T06:00 | 21346 | 46 | -53.3 | ||||
| 2001-09-01T06:00 | 21399 | 46 | -53.3 | ||||
| 2001-09-01T06:00 | 21456 | 45 | -53.3 | ||||
| 2001-09-01T06:00 | 21514 | 45 | -53.2 | ||||
| 2001-09-01T06:00 | 21569 | 44 | -53.2 | ||||
| 2001-09-01T06:00 | 21622 | 44 | -53.4 | ||||
| 2001-09-01T06:00 | 21682 | 44 | -53.5 | ||||
| 2001-09-01T06:00 | 21738 | 43 | -53.5 | ||||
| 2001-09-01T06:00 | 21793 | 43 | -53.5 | ||||
| 2001-09-01T06:00 | 21847 | 43 | -53.3 | ||||
| 2001-09-01T06:00 | 21903 | 42 | -53.3 | ||||
| 2001-09-01T06:00 | 21962 | 42 | -53.4 | ||||
| 2001-09-01T06:00 | 22021 | 41 | -53.4 | ||||
| 2001-09-01T06:00 | 22078 | 41 | -53.3 | ||||
| 2001-09-01T06:00 | 22134 | 41 | -53.3 | ||||
| 2001-09-01T06:00 | 22191 | 40 | -53.2 | ||||
| 2001-09-01T06:00 | 22251 | 40 | -53.2 | ||||
| 2001-09-01T06:00 | 22312 | 40 | -53.1 | ||||
| 2001-09-01T06:00 | 22364 | 39 | -53.0 | ||||
| 2001-09-01T06:00 | 22422 | 39 | -53.1 | ||||
| 2001-09-01T06:00 | 22484 | 39 | -53.2 | ||||
| 2001-09-01T06:00 | 22545 | 38 | -53.3 | ||||
| 2001-09-01T06:00 | 22606 | 38 | -53.5 | ||||
| 2001-09-01T06:00 | 22666 | 37 | -53.5 | ||||
| 2001-09-01T06:00 | 22721 | 37 | -53.6 | ||||
| 2001-09-01T06:00 | 22779 | 37 | -53.6 | ||||
| 2001-09-01T06:00 | 22840 | 36 | -53.7 | ||||
| 2001-09-01T06:00 | 22901 | 36 | -53.9 | ||||
| 2001-09-01T06:00 | 22964 | 36 | -53.7 | ||||
| 2001-09-01T06:00 | 23023 | 35 | -53.5 | ||||
| 2001-09-01T06:00 | 23080 | 35 | -53.2 | ||||
| 2001-09-01T06:00 | 23137 | 35 | -53.0 | ||||
| 2001-09-01T06:00 | 23195 | 35 | -52.9 | ||||
| 2001-09-01T06:00 | 23253 | 34 | -52.8 | ||||
| 2001-09-01T06:00 | 23308 | 34 | -52.7 | ||||
| 2001-09-01T06:00 | 23364 | 34 | -52.5 | ||||
| 2001-09-01T06:00 | 23420 | 33 | -52.5 | ||||
| 2001-09-01T06:00 | 23479 | 33 | -52.5 | ||||
| 2001-09-01T06:00 | 23537 | 33 | -52.4 | ||||
| 2001-09-01T06:00 | 23595 | 32 | -52.1 | ||||
| 2001-09-01T06:00 | 23654 | 32 | -51.9 | ||||
| 2001-09-01T06:00 | 23716 | 32 | -51.8 | ||||
| 2001-09-01T06:00 | 23768 | 32 | -51.7 | ||||
| 2001-09-01T06:00 | 23822 | 31 | -51.7 | ||||
| 2001-09-01T06:00 | 23879 | 31 | -51.7 | ||||
| 2001-09-01T06:00 | 23939 | 31 | -51.6 | ||||
| 2001-09-01T06:00 | 24001 | 30 | -51.3 | ||||
| 2001-09-01T06:00 | 24061 | 30 | -51.0 | ||||
| 2001-09-01T06:00 | 24121 | 30 | -50.7 | ||||
| 2001-09-01T06:00 | 24183 | 30 | -50.6 | ||||
| 2001-09-01T06:00 | 24245 | 29 | -50.5 | ||||
| 2001-09-01T06:00 | 24308 | 29 | -50.3 | ||||
| 2001-09-01T06:00 | 24368 | 29 | -50.2 | ||||
| 2001-09-01T06:00 | 24432 | 29 | -49.9 | ||||
| 2001-09-01T06:00 | 24491 | 28 | -49.6 | ||||
| 2001-09-01T06:00 | 24552 | 28 | -49.3 | ||||
| 2001-09-01T06:00 | 24617 | 28 | -48.9 | ||||
| 2001-09-01T06:00 | 24683 | 27 | -48.3 | ||||
| 2001-09-01T06:00 | 24744 | 27 | -48.2 | ||||
| 2001-09-01T06:00 | 24802 | 27 | -48.2 | ||||
| 2001-09-01T06:00 | 24868 | 27 | -48.3 | ||||
| 2001-09-01T06:00 | 24933 | 26 | -48.3 | ||||
| 2001-09-01T06:00 | 24995 | 26 | -48.5 | ||||
| 2001-09-01T06:00 | 25059 | 26 | -48.2 | ||||
| 2001-09-01T06:00 | 25122 | 26 | -48.4 | ||||
| 2001-09-01T06:00 | 25185 | 25 | -48.5 | ||||
| 2001-09-01T06:00 | 25244 | 25 | -48.6 | ||||
| 2001-09-01T06:00 | 25307 | 25 | -48.8 | ||||
| 2001-09-01T06:00 | 25371 | 25 | -48.9 | ||||
| 2001-09-01T06:00 | 25437 | 25 | -49.1 | ||||
| 2001-09-01T06:00 | 25504 | 24 | -48.9 | ||||
| 2001-09-01T06:00 | 25573 | 24 | -48.8 | ||||
| 2001-09-01T06:00 | 25632 | 24 | -48.6 | ||||
| 2001-09-01T06:00 | 25690 | 24 | -48.5 | ||||
| 2001-09-01T06:00 | 25750 | 23 | -48.5 | ||||
| 2001-09-01T06:00 | 25812 | 23 | -48.4 | ||||
| 2001-09-01T06:00 | 25883 | 23 | -48.3 | ||||
| 2001-09-01T06:00 | 25958 | 23 | -48.2 | ||||
| 2001-09-01T06:00 | 26008 | 22 | -48.1 | ||||
| 2001-09-01T06:00 | 26065 | 22 | -47.9 | ||||
| 2001-09-01T06:00 | 26129 | 22 | -47.8 | ||||
| 2001-09-01T06:00 | 26198 | 22 | -47.7 | ||||
| 2001-09-01T06:00 | 26268 | 22 | -47.8 | ||||
| 2001-09-01T06:00 | 26339 | 21 | -47.5 | ||||
| 2001-09-01T06:00 | 26392 | 21 | -47.2 | ||||
| 2001-09-01T06:00 | 26449 | 21 | -46.9 | ||||
| 2001-09-01T06:00 | 26508 | 21 | -46.7 | ||||
| 2001-09-01T06:00 | 26572 | 21 | -46.6 | ||||
| 2001-09-01T06:00 | 26635 | 20 | -46.4 | ||||
| 2001-09-01T06:00 | 26696 | 20 | -46.1 | ||||
| 2001-09-01T06:00 | 26769 | 20 | -45.7 | ||||
| 2001-09-01T06:00 | 26836 | 20 | -45.2 | ||||
| 2001-09-01T06:00 | 26897 | 20 | -44.7 | ||||
| 2001-09-01T06:00 | 26954 | 19 | -44.4 | ||||
| 2001-09-01T06:00 | 27016 | 19 | -44.4 | ||||
| 2001-09-01T06:00 | 27083 | 19 | -44.3 | ||||
| 2001-09-01T06:00 | 27147 | 19 | -44.3 | ||||
| 2001-09-01T06:00 | 27212 | 19 | -44.3 | ||||
| 2001-09-01T06:00 | 27281 | 19 | -44.4 | ||||
| 2001-09-01T06:00 | 27351 | 18 | -43.9 | ||||
| 2001-09-01T06:00 | 27427 | 18 | -43.5 | ||||
| 2001-09-01T06:00 | 27507 | 18 | -43.2 | ||||
| 2001-09-01T06:00 | 27567 | 18 | -43.0 | ||||
| 2001-09-01T06:00 | 27629 | 18 | -42.9 | ||||
| 2001-09-01T06:00 | 27695 | 17 | -42.7 | ||||
| 2001-09-01T06:00 | 27762 | 17 | -42.7 | ||||
| 2001-09-01T06:00 | 27827 | 17 | -43.1 | ||||
| 2001-09-01T06:00 | 27884 | 17 | -43.6 | ||||
| 2001-09-01T06:00 | 27963 | 17 | -43.5 | ||||
| 2001-09-01T06:00 | 28035 | 17 | -43.5 | ||||
| 2001-09-01T06:00 | 28102 | 16 | -43.6 | ||||
| 2001-09-01T06:00 | 28168 | 16 | -43.8 | ||||
| 2001-09-01T06:00 | 28232 | 16 | -43.6 | ||||
| 2001-09-01T06:00 | 28293 | 16 | -43.4 | ||||
| 2001-09-01T06:00 | 28357 | 16 | -43.3 | ||||
| 2001-09-01T06:00 | 28423 | 16 | -43.2 | ||||
| 2001-09-01T06:00 | 28488 | 16 | -43.2 | ||||
| 2001-09-01T06:00 | 28551 | 15 | -43.2 | ||||
| 2001-09-01T06:00 | 28612 | 15 | -42.7 | ||||
| 2001-09-01T06:00 | 28668 | 15 | -42.3 | ||||
| 2001-09-01T06:00 | 28737 | 15 | -41.9 | ||||
| 2001-09-01T06:00 | 28802 | 15 | -41.3 | ||||
| 2001-09-01T06:00 | 28865 | 15 | -40.7 | ||||
| 2001-09-01T06:00 | 28928 | 15 | -40.2 | ||||
| 2001-09-01T06:00 | 28991 | 14 | -39.9 | ||||
| 2001-09-01T06:00 | 29053 | 14 | -39.7 | ||||
| 2001-09-01T06:00 | 29135 | 14 | -39.7 | ||||
| 2001-09-01T06:00 | 29210 | 14 | -39.8 | ||||
| 2001-09-01T06:00 | 29280 | 14 | -39.9 | ||||
| 2001-09-01T06:00 | 29352 | 14 | -39.7 | ||||
| 2001-09-01T06:00 | 29422 | 14 | -39.6 | ||||
| 2001-09-01T06:00 | 29488 | 13 | -39.7 | ||||
| 2001-09-01T06:00 | 29560 | 13 | -39.9 | ||||
| 2001-09-01T06:00 | 29632 | 13 | -40.0 | ||||
| 2001-09-01T06:00 | 29705 | 13 | -40.1 | ||||
| 2001-09-01T06:00 | 29782 | 13 | -40.2 | ||||
| 2001-09-01T06:00 | 29850 | 13 | -40.2 | ||||
| 2001-09-01T06:00 | 29908 | 13 | -40.0 | ||||
| 2001-09-01T06:00 | 29977 | 12 | -39.8 | ||||
| 2001-09-01T06:00 | 30048 | 12 | -39.6 | ||||
| 2001-09-01T06:00 | 30119 | 12 | -39.5 | ||||
| 2001-09-01T06:00 | 30189 | 12 | -39.6 | ||||
| 2001-09-01T06:00 | 30254 | 12 | -39.4 | ||||
| 2001-09-01T06:00 | 30317 | 12 | -39.3 | ||||
| 2001-09-01T06:00 | 30386 | 12 | -39.1 | ||||
| 2001-09-01T06:00 | 30451 | 12 | -38.9 | ||||
| 2001-09-01T06:00 | 30513 | 12 | -38.7 | ||||
| 2001-09-01T06:00 | 30575 | 11 | -38.7 | ||||
| 2001-09-01T06:00 | 30646 | 11 | -38.7 | ||||
| 2001-09-01T06:00 | 30723 | 11 | -38.6 | ||||
| 2001-09-01T06:00 | 30786 | 11 | -38.5 | ||||
| 2001-09-01T06:00 | 30855 | 11 | -38.5 | ||||
| 2001-09-01T06:00 | 30924 | 11 | -38.6 | ||||
| 2001-09-01T06:00 | 30991 | 11 | -38.3 | ||||
| 2001-09-01T06:00 | 31058 | 11 | -38.1 | ||||
| 2001-09-01T06:00 | 31129 | 11 | -37.8 | ||||
| 2001-09-01T06:00 | 31208 | 10 | -37.7 | ||||
| 2001-09-01T06:00 | 31282 | 10 | -37.6 | ||||
| 2001-09-01T06:00 | 31354 | 10 | -37.8 | ||||
| 2001-09-01T06:00 | 31428 | 10 | -37.8 | ||||
| 2001-09-01T06:00 | 31509 | 10 | -38.0 | ||||
| 2001-09-01T06:00 | 31595 | 10 | -38.1 | ||||
| 2001-09-01T06:00 | 31652 | 10 | -38.1 | ||||
| 2001-09-01T06:00 | 31783 | 10 | -37.8 | ||||
| 2001-09-01T06:00 | 31852 | 10 | -37.7 | ||||
| 2001-09-01T06:00 | 31919 | 9 | -37.7 | ||||
| 2001-09-01T06:00 | 31985 | 9 | -37.7 | ||||
| 2001-09-01T06:00 | 32049 | 9 | -37.8 | ||||
| 2001-09-01T06:00 | 32109 | 9 | -38.0 | ||||
| 2001-09-01T06:00 | 32172 | 9 | -38.2 | ||||
| 2001-09-01T06:00 | 32299 | 9 | -38.6 | ||||
| 2001-09-01T06:00 | 32361 | 9 | -38.6 | ||||
| 2001-09-01T06:00 | 32422 | 9 | -38.6 | ||||
| 2001-09-01T06:00 | 32484 | 9 | -38.5 | ||||
| 2001-09-01T06:00 | 32608 | 9 | -38.6 | ||||
| 2001-09-01T06:00 | 32681 | 8 | -38.6 | ||||
| 2001-09-01T06:00 | 32767 | 8 | -38.7 | ||||
| 2001-09-01T06:00 | 32821 | 8 | -38.2 | ||||
| 2001-09-01T06:00 | 32947 | 8 | -37.3 | ||||
| 2001-09-01T06:00 | 33019 | 8 | -37.2 | ||||
| 2001-09-01T06:00 | 33095 | 8 | -37.2 | ||||
| 2001-09-01T06:00 | 33171 | 8 | -37.1 | ||||
| 2001-09-01T06:00 | 33244 | 8 | -36.9 | ||||
| 2001-09-01T06:00 | 33391 | 8 | -36.4 | ||||
| 2001-09-01T06:00 | 33470 | 8 | -36.4 | ||||
| 2001-09-01T06:00 | 33552 | 7 | -36.3 | ||||
| 2001-09-01T06:00 | 33630 | 7 | -36.4 | ||||
| 2001-09-01T06:00 | 33712 | 7 | -36.5 | ||||
| 2001-09-01T06:00 | 33855 | 7 | -35.8 | ||||
| 2001-09-01T06:00 | 33924 | 7 | -35.7 | ||||
| 2001-09-01T06:00 | 33990 | 7 | -35.6 | ||||
| 2001-09-01T06:00 | 34121 | 7 | -35.3 | ||||
| 2001-09-01T06:00 | 34196 | 7 | -35.4 | ||||
| 2001-09-01T06:00 | 34341 | 7 | -35.5 | ||||
| 2001-09-01T06:00 | 34409 | 7 | -35.5 | ||||
| 2001-09-01T06:00 | 34516 | 6 | -35.3 | ||||
| 2001-09-01T06:00 | 34642 | 6 | -34.5 | ||||
| 2001-09-01T06:00 | 34729 | 6 | -34.0 | ||||
| 2001-09-01T12:00 | 112 | 996 | 17.6 | 15.6 | 320 | 2 | |
| 2001-09-01T12:00 | 150 | 992 | 16.6 | 14.1 | 240 | 5 | |
| 2001-09-01T12:00 | 189 | 987 | 16.4 | 13.9 | |||
| 2001-09-01T12:00 | 233 | 982 | 16.0 | 13.7 | 287 | 4 | |
| 2001-09-01T12:00 | 279 | 977 | 15.6 | 13.6 | |||
| 2001-09-01T12:00 | 324 | 972 | 15.2 | 13.2 | |||
| 2001-09-01T12:00 | 368 | 967 | 14.9 | 12.8 | 310 | 5 | |
| 2001-09-01T12:00 | 411 | 962 | 14.5 | 12.5 | |||
| 2001-09-01T12:00 | 457 | 957 | 14.1 | 12.3 | |||
| 2001-09-01T12:00 | 500 | 952 | 13.8 | 12.2 | 320 | 7 | |
| 2001-09-01T12:00 | 547 | 947 | 13.4 | 11.8 | |||
| 2001-09-01T12:00 | 595 | 941 | 13.0 | 11.6 | |||
| 2001-09-01T12:00 | 640 | 936 | 12.7 | 11.1 | 326 | 9 | |
| 2001-09-01T12:00 | 681 | 932 | 12.4 | 11.0 | |||
| 2001-09-01T12:00 | 724 | 927 | 12.1 | 10.5 | |||
| 2001-09-01T12:00 | 769 | 922 | 11.8 | 10.1 | 330 | 11 | |
| 2001-09-01T12:00 | 812 | 917 | 11.3 | 9.6 | |||
| 2001-09-01T12:00 | 857 | 912 | 11.0 | 9.3 | |||
| 2001-09-01T12:00 | 904 | 907 | 10.7 | 9.0 | 335 | 11 | |
| 2001-09-01T12:00 | 947 | 903 | 10.4 | 8.7 | |||
| 2001-09-01T12:00 | 990 | 898 | 10.1 | 8.2 | |||
| 2001-09-01T12:00 | 1034 | 893 | 9.9 | 7.8 | 338 | 10 | |
| 2001-09-01T12:00 | 1077 | 889 | 9.6 | 7.6 | |||
| 2001-09-01T12:00 | 1122 | 884 | 9.3 | 7.1 | |||
| 2001-09-01T12:00 | 1164 | 879 | 8.9 | 6.7 | 340 | 10 | |
| 2001-09-01T12:00 | 1211 | 874 | 8.6 | 6.4 | |||
| 2001-09-01T12:00 | 1257 | 869 | 8.4 | 6.0 | |||
| 2001-09-01T12:00 | 1302 | 865 | 8.2 | 5.8 | 340 | 10 | |
| 2001-09-01T12:00 | 1344 | 860 | 7.9 | 5.5 | |||
| 2001-09-01T12:00 | 1384 | 856 | 7.7 | 5.3 | |||
| 2001-09-01T12:00 | 1423 | 852 | 7.5 | 341 | 11 | ||
| 2001-09-01T12:00 | 1471 | 847 | 7.1 | 4.6 | |||
| 2001-09-01T12:00 | 1521 | 842 | 6.8 | 4.3 | |||
| 2001-09-01T12:00 | 1567 | 837 | 6.4 | 3.7 | 342 | 10 | |
| 2001-09-01T12:00 | 1611 | 833 | 6.3 | 4.1 | |||
| 2001-09-01T12:00 | 1654 | 829 | 6.0 | 4.2 | |||
| 2001-09-01T12:00 | 1698 | 824 | 5.8 | 4.1 | 343 | 10 | |
| 2001-09-01T12:00 | 1742 | 820 | 5.6 | 3.1 | |||
| 2001-09-01T12:00 | 1784 | 816 | 5.4 | 2.9 | |||
| 2001-09-01T12:00 | 1828 | 811 | 5.2 | 2.7 | 343 | 9 | |
| 2001-09-01T12:00 | 1875 | 806 | 4.9 | 2.6 | |||
| 2001-09-01T12:00 | 1923 | 802 | 4.7 | 2.6 | |||
| 2001-09-01T12:00 | 1969 | 797 | 4.4 | 2.3 | 342 | 9 | |
| 2001-09-01T12:00 | 2015 | 793 | 4.1 | 2.3 | |||
| 2001-09-01T12:00 | 2059 | 789 | 3.7 | 2.2 | |||
| 2001-09-01T12:00 | 2102 | 784 | 3.4 | 2.2 | 340 | 8 | |
| 2001-09-01T12:00 | 2146 | 780 | 3.4 | 2.1 | |||
| 2001-09-01T12:00 | 2193 | 776 | 3.3 | 1.8 | |||
| 2001-09-01T12:00 | 2237 | 771 | 3.1 | 1.2 | 338 | 8 | |
| 2001-09-01T12:00 | 2281 | 767 | 2.9 | 0.5 | |||
| 2001-09-01T12:00 | 2322 | 763 | 2.8 | 1.0 | |||
| 2001-09-01T12:00 | 2364 | 759 | 2.6 | 1.4 | 339 | 6 | |
| 2001-09-01T12:00 | 2405 | 756 | 2.6 | 1.3 | |||
| 2001-09-01T12:00 | 2449 | 752 | 2.3 | 1.1 | |||
| 2001-09-01T12:00 | 2496 | 747 | 2.0 | 1.0 | 345 | 5 | |
| 2001-09-01T12:00 | 2540 | 743 | 1.7 | 1.1 | |||
| 2001-09-01T12:00 | 2589 | 739 | 1.3 | 0.7 | |||
| 2001-09-01T12:00 | 2642 | 734 | 0.8 | 0.2 | 353 | 4 | |
| 2001-09-01T12:00 | 2699 | 729 | 0.5 | 0.1 | |||
| 2001-09-01T12:00 | 2756 | 723 | 0.4 | 0.1 | |||
| 2001-09-01T12:00 | 2811 | 719 | 0.2 | -0.1 | 4 | 4 | |
| 2001-09-01T12:00 | 2865 | 714 | 0.1 | -0.2 | |||
| 2001-09-01T12:00 | 2920 | 709 | -0.1 | -0.3 | |||
| 2001-09-01T12:00 | 2975 | 704 | -0.5 | -0.7 | 13 | 4 | |
| 2001-09-01T12:00 | 3032 | 699 | -0.6 | -0.8 | |||
| 2001-09-01T12:00 | 3086 | 694 | -0.9 | -1.1 | |||
| 2001-09-01T12:00 | 3145 | 689 | -1.1 | -1.3 | 19 | 4 | |
| 2001-09-01T12:00 | 3202 | 684 | -1.4 | -1.6 | |||
| 2001-09-01T12:00 | 3260 | 679 | -1.7 | -1.9 | |||
| 2001-09-01T12:00 | 3318 | 674 | -2.1 | -2.3 | 24 | 4 | |
| 2001-09-01T12:00 | 3375 | 670 | -2.2 | -2.4 | |||
| 2001-09-01T12:00 | 3435 | 665 | -2.6 | -2.8 | |||
| 2001-09-01T12:00 | 3497 | 659 | -2.9 | -3.1 | 28 | 4 | |
| 2001-09-01T12:00 | 3551 | 655 | -3.2 | -3.4 | |||
| 2001-09-01T12:00 | 3609 | 650 | -3.5 | -3.7 | |||
| 2001-09-01T12:00 | 3665 | 646 | -3.7 | -3.9 | 29 | 5 | |
| 2001-09-01T12:00 | 3719 | 641 | -4.0 | -4.4 | |||
| 2001-09-01T12:00 | 3773 | 637 | -4.2 | -4.6 | |||
| 2001-09-01T12:00 | 3829 | 632 | -4.6 | -5.0 | 29 | 4 | |
| 2001-09-01T12:00 | 3883 | 628 | -5.0 | -5.4 | |||
| 2001-09-01T12:00 | 3937 | 624 | -5.3 | ||||
| 2001-09-01T12:00 | 3988 | 620 | -5.6 | -6.0 | 30 | 4 | |
| 2001-09-01T12:00 | 4044 | 615 | -5.9 | -6.3 | |||
| 2001-09-01T12:00 | 4098 | 611 | -6.1 | -6.5 | |||
| 2001-09-01T12:00 | 4151 | 607 | -6.3 | -6.8 | 35 | 4 | |
| 2001-09-01T12:00 | 4206 | 603 | -6.6 | -7.2 | |||
| 2001-09-01T12:00 | 4260 | 598 | -6.9 | -7.5 | |||
| 2001-09-01T12:00 | 4313 | 594 | -7.1 | -7.6 | 42 | 4 | |
| 2001-09-01T12:00 | 4369 | 590 | -7.5 | -7.9 | |||
| 2001-09-01T12:00 | 4424 | 586 | -7.8 | -8.0 | |||
| 2001-09-01T12:00 | 4479 | 582 | -8.1 | -8.5 | 53 | 4 | |
| 2001-09-01T12:00 | 4530 | 578 | -8.4 | -8.9 | |||
| 2001-09-01T12:00 | 4581 | 574 | -8.7 | -9.2 | |||
| 2001-09-01T12:00 | 4628 | 571 | -9.0 | -9.7 | 64 | 4 | |
| 2001-09-01T12:00 | 4678 | 567 | -9.2 | -10.1 | |||
| 2001-09-01T12:00 | 4727 | 564 | -9.4 | -10.5 | |||
| 2001-09-01T12:00 | 4780 | 560 | -9.8 | -11.1 | 65 | 3 | |
| 2001-09-01T12:00 | 4829 | 556 | -10.2 | -11.4 | |||
| 2001-09-01T12:00 | 4879 | 553 | -10.5 | -11.8 | |||
| 2001-09-01T12:00 | 4934 | 549 | -10.8 | -12.2 | 55 | 3 | |
| 2001-09-01T12:00 | 4990 | 545 | -11.1 | -12.5 | |||
| 2001-09-01T12:00 | 5046 | 541 | -11.6 | -12.9 | |||
| 2001-09-01T12:00 | 5104 | 537 | -12.0 | -13.3 | 44 | 3 | |
| 2001-09-01T12:00 | 5157 | 533 | -12.3 | -13.5 | |||
| 2001-09-01T12:00 | 5211 | 529 | -12.7 | -13.7 | |||
| 2001-09-01T12:00 | 5265 | 525 | -13.1 | -14.3 | 36 | 2 | |
| 2001-09-01T12:00 | 5317 | 522 | -13.4 | -14.6 | |||
| 2001-09-01T12:00 | 5371 | 518 | -13.8 | -15.0 | |||
| 2001-09-01T12:00 | 5427 | 514 | -14.1 | -15.4 | 28 | 2 | |
| 2001-09-01T12:00 | 5477 | 511 | -14.4 | -15.5 | |||
| 2001-09-01T12:00 | 5528 | 508 | -14.7 | -16.1 | |||
| 2001-09-01T12:00 | 5586 | 504 | -15.0 | -16.5 | 22 | 2 | |
| 2001-09-01T12:00 | 5647 | 500 | -15.5 | -17.0 | |||
| 2001-09-01T12:00 | 5707 | 496 | -15.9 | -17.4 | |||
| 2001-09-01T12:00 | 5766 | 492 | -16.3 | -17.9 | 18 | 3 | |
| 2001-09-01T12:00 | 5814 | 489 | -16.6 | -18.1 | |||
| 2001-09-01T12:00 | 5864 | 485 | -16.8 | -18.4 | |||
| 2001-09-01T12:00 | 5913 | 482 | -17.1 | -18.8 | 16 | 3 | |
| 2001-09-01T12:00 | 5963 | 479 | -17.6 | -19.6 | |||
| 2001-09-01T12:00 | 6012 | 476 | -17.9 | -20.0 | |||
| 2001-09-01T12:00 | 6063 | 473 | -18.2 | -20.4 | 11 | 4 | |
| 2001-09-01T12:00 | 6112 | 470 | -18.5 | -20.6 | |||
| 2001-09-01T12:00 | 6163 | 466 | -18.8 | -20.9 | |||
| 2001-09-01T12:00 | 6218 | 463 | -19.1 | -21.2 | 14 | 3 | |
| 2001-09-01T12:00 | 6272 | 460 | -19.6 | -21.5 | |||
| 2001-09-01T12:00 | 6323 | 457 | -19.9 | -21.7 | |||
| 2001-09-01T12:00 | 6374 | 453 | -20.2 | -22.0 | 25 | 1 | |
| 2001-09-01T12:00 | 6428 | 450 | -20.5 | -22.2 | |||
| 2001-09-01T12:00 | 6486 | 447 | -20.8 | -22.5 | |||
| 2001-09-01T12:00 | 6547 | 443 | -21.2 | -23.0 | 94 | 1 | |
| 2001-09-01T12:00 | 6610 | 439 | -21.7 | -23.6 | |||
| 2001-09-01T12:00 | 6675 | 435 | -22.1 | -24.0 | |||
| 2001-09-01T12:00 | 6738 | 432 | -22.6 | -24.6 | 144 | 2 | |
| 2001-09-01T12:00 | 6797 | 428 | -23.0 | -25.1 | |||
| 2001-09-01T12:00 | 6854 | 425 | -23.4 | -25.5 | |||
| 2001-09-01T12:00 | 6909 | 422 | -23.9 | -26.0 | 150 | 3 | |
| 2001-09-01T12:00 | 6961 | 419 | -24.2 | -26.3 | |||
| 2001-09-01T12:00 | 7014 | 416 | -24.6 | -26.7 | |||
| 2001-09-01T12:00 | 7069 | 412 | -25.0 | -27.1 | 154 | 4 | |
| 2001-09-01T12:00 | 7124 | 409 | -25.4 | -27.5 | |||
| 2001-09-01T12:00 | 7183 | 406 | -25.8 | -27.9 | |||
| 2001-09-01T12:00 | 7248 | 402 | -26.4 | -28.5 | 164 | 4 | |
| 2001-09-01T12:00 | 7313 | 399 | -26.9 | -29.1 | |||
| 2001-09-01T12:00 | 7377 | 395 | -27.4 | -29.5 | |||
| 2001-09-01T12:00 | 7440 | 392 | -27.9 | -30.1 | 172 | 3 | |
| 2001-09-01T12:00 | 7503 | 388 | -28.4 | -30.7 | |||
| 2001-09-01T12:00 | 7569 | 385 | -28.8 | -31.1 | |||
| 2001-09-01T12:00 | 7636 | 381 | -29.3 | -31.8 | 171 | 3 | |
| 2001-09-01T12:00 | 7700 | 378 | -30.0 | -32.6 | |||
| 2001-09-01T12:00 | 7764 | 374 | -30.4 | -33.0 | |||
| 2001-09-01T12:00 | 7829 | 371 | -30.9 | -33.6 | 164 | 2 | |
| 2001-09-01T12:00 | 7894 | 368 | -31.4 | -34.2 | |||
| 2001-09-01T12:00 | 7962 | 364 | -32.0 | -34.7 | |||
| 2001-09-01T12:00 | 8029 | 361 | -32.7 | -35.5 | 153 | 2 | |
| 2001-09-01T12:00 | 8096 | 357 | -33.2 | -36.0 | |||
| 2001-09-01T12:00 | 8161 | 354 | -33.7 | -36.6 | |||
| 2001-09-01T12:00 | 8226 | 351 | -34.2 | -37.2 | 138 | 3 | |
| 2001-09-01T12:00 | 8289 | 348 | -34.7 | -37.7 | |||
| 2001-09-01T12:00 | 8354 | 344 | -35.3 | -38.4 | |||
| 2001-09-01T12:00 | 8420 | 341 | -35.9 | -38.9 | 135 | 3 | |
| 2001-09-01T12:00 | 8484 | 338 | -36.4 | -39.5 | |||
| 2001-09-01T12:00 | 8550 | 335 | -36.9 | -40.0 | |||
| 2001-09-01T12:00 | 8619 | 331 | -37.5 | -40.7 | 144 | 3 | |
| 2001-09-01T12:00 | 8683 | 328 | -38.1 | -41.3 | |||
| 2001-09-01T12:00 | 8749 | 325 | -38.7 | -42.0 | |||
| 2001-09-01T12:00 | 8816 | 322 | -39.3 | -42.6 | 156 | 4 | |
| 2001-09-01T12:00 | 8881 | 319 | -39.8 | -43.2 | |||
| 2001-09-01T12:00 | 8944 | 316 | -40.4 | -43.9 | |||
| 2001-09-01T12:00 | 9006 | 313 | -41.0 | -44.5 | 162 | 5 | |
| 2001-09-01T12:00 | 9075 | 310 | -41.7 | -45.4 | |||
| 2001-09-01T12:00 | 9143 | 307 | -42.3 | -46.1 | |||
| 2001-09-01T12:00 | 9211 | 304 | -42.8 | -46.6 | 162 | 6 | |
| 2001-09-01T12:00 | 9275 | 301 | -43.3 | -47.1 | |||
| 2001-09-01T12:00 | 9339 | 298 | -43.8 | -47.7 | |||
| 2001-09-01T12:00 | 9399 | 295 | -44.3 | -48.3 | 161 | 8 | |
| 2001-09-01T12:00 | 9460 | 293 | -44.9 | -49.0 | |||
| 2001-09-01T12:00 | 9522 | 290 | -45.5 | -49.7 | |||
| 2001-09-01T12:00 | 9585 | 287 | -46.1 | -50.4 | 158 | 9 | |
| 2001-09-01T12:00 | 9652 | 285 | -46.6 | -50.8 | |||
| 2001-09-01T12:00 | 9721 | 282 | -47.2 | -51.4 | |||
| 2001-09-01T12:00 | 9794 | 278 | -47.9 | -52.0 | 156 | 10 | |
| 2001-09-01T12:00 | 9868 | 275 | -48.5 | -52.6 | |||
| 2001-09-01T12:00 | 9940 | 272 | -49.1 | -53.2 | |||
| 2001-09-01T12:00 | 10010 | 269 | -49.9 | -54.0 | 156 | 11 | |
| 2001-09-01T12:00 | 10079 | 267 | -50.4 | -54.6 | |||
| 2001-09-01T12:00 | 10150 | 264 | -51.1 | -55.1 | |||
| 2001-09-01T12:00 | 10225 | 261 | -51.8 | -55.8 | 157 | 13 | |
| 2001-09-01T12:00 | 10293 | 258 | -52.5 | -56.6 | |||
| 2001-09-01T12:00 | 10364 | 255 | -53.2 | -57.2 | |||
| 2001-09-01T12:00 | 10434 | 252 | -53.9 | -58.0 | 158 | 14 | |
| 2001-09-01T12:00 | 10503 | 250 | -54.4 | -58.4 | |||
| 2001-09-01T12:00 | 10570 | 247 | -55.0 | -59.1 | |||
| 2001-09-01T12:00 | 10639 | 244 | -55.7 | -59.8 | 158 | 15 | |
| 2001-09-01T12:00 | 10707 | 242 | -56.4 | -60.7 | |||
| 2001-09-01T12:00 | 10777 | 239 | -57.0 | -61.3 | |||
| 2001-09-01T12:00 | 10844 | 237 | -57.8 | -62.1 | 157 | 16 | |
| 2001-09-01T12:00 | 10911 | 234 | -58.2 | -62.6 | |||
| 2001-09-01T12:00 | 10973 | 232 | -58.8 | -63.2 | |||
| 2001-09-01T12:00 | 11035 | 230 | -59.3 | -63.4 | 158 | 16 | |
| 2001-09-01T12:00 | 11090 | 228 | -59.8 | -63.9 | |||
| 2001-09-01T12:00 | 11146 | 226 | -60.2 | -64.3 | |||
| 2001-09-01T12:00 | 11207 | 223 | -60.6 | -64.5 | 162 | 15 | |
| 2001-09-01T12:00 | 11266 | 221 | -60.7 | -64.5 | |||
| 2001-09-01T12:00 | 11325 | 219 | -60.2 | -63.9 | |||
| 2001-09-01T12:00 | 11383 | 217 | -58.7 | -62.6 | 168 | 11 | |
| 2001-09-01T12:00 | 11450 | 215 | -57.1 | ||||
| 2001-09-01T12:00 | 11515 | 213 | -56.5 | ||||
| 2001-09-01T12:00 | 11580 | 210 | -56.1 | 174 | 9 | ||
| 2001-09-01T12:00 | 11642 | 208 | -55.6 | ||||
| 2001-09-01T12:00 | 11704 | 206 | -55.3 | ||||
| 2001-09-01T12:00 | 11779 | 204 | -55.0 | 182 | 8 | ||
| 2001-09-01T12:00 | 11851 | 202 | -54.6 | ||||
| 2001-09-01T12:00 | 11918 | 200 | -54.2 | ||||
| 2001-09-01T12:00 | 11984 | 198 | -54.0 | 194 | 8 | ||
| 2001-09-01T12:00 | 12046 | 196 | -53.0 | ||||
| 2001-09-01T12:00 | 12106 | 194 | -52.9 | ||||
| 2001-09-01T12:00 | 12163 | 192 | -52.8 | 207 | 8 | ||
| 2001-09-01T12:00 | 12231 | 190 | -52.5 | ||||
| 2001-09-01T12:00 | 12302 | 188 | -52.2 | ||||
| 2001-09-01T12:00 | 12371 | 186 | -52.7 | 215 | 5 | ||
| 2001-09-01T12:00 | 12442 | 184 | -53.1 | ||||
| 2001-09-01T12:00 | 12514 | 182 | -53.0 | ||||
| 2001-09-01T12:00 | 12587 | 180 | -52.8 | 210 | 4 | ||
| 2001-09-01T12:00 | 12642 | 178 | -52.6 | ||||
| 2001-09-01T12:00 | 12700 | 177 | -52.5 | ||||
| 2001-09-01T12:00 | 12762 | 175 | -52.3 | 199 | 4 | ||
| 2001-09-01T12:00 | 12825 | 173 | -52.0 | ||||
| 2001-09-01T12:00 | 12888 | 172 | -51.3 | ||||
| 2001-09-01T12:00 | 12950 | 170 | -51.4 | 194 | 5 | ||
| 2001-09-01T12:00 | 13018 | 168 | -51.5 | ||||
| 2001-09-01T12:00 | 13082 | 167 | -51.6 | ||||
| 2001-09-01T12:00 | 13137 | 165 | -51.6 | 197 | 7 | ||
| 2001-09-01T12:00 | 13191 | 164 | -51.1 | ||||
| 2001-09-01T12:00 | 13243 | 163 | -51.0 | ||||
| 2001-09-01T12:00 | 13297 | 161 | -50.9 | 203 | 6 | ||
| 2001-09-01T12:00 | 13348 | 160 | -50.8 | ||||
| 2001-09-01T12:00 | 13404 | 159 | -50.8 | ||||
| 2001-09-01T12:00 | 13461 | 157 | -50.7 | 205 | 5 | ||
| 2001-09-01T12:00 | 13518 | 156 | -50.5 | ||||
| 2001-09-01T12:00 | 13576 | 155 | -50.7 | ||||
| 2001-09-01T12:00 | 13633 | 153 | -51.1 | 205 | 5 | ||
| 2001-09-01T12:00 | 13695 | 152 | -51.4 | ||||
| 2001-09-01T12:00 | 13760 | 150 | -51.6 | ||||
| 2001-09-01T12:00 | 13826 | 149 | -51.7 | 210 | 6 | ||
| 2001-09-01T12:00 | 13891 | 147 | -51.0 | ||||
| 2001-09-01T12:00 | 13948 | 146 | -50.0 | ||||
| 2001-09-01T12:00 | 14000 | 145 | -49.1 | 220 | 7 | ||
| 2001-09-01T12:00 | 14062 | 143 | -49.3 | ||||
| 2001-09-01T12:00 | 14124 | 142 | -49.5 | ||||
| 2001-09-01T12:00 | 14188 | 141 | -49.6 | 233 | 7 | ||
| 2001-09-01T12:00 | 14254 | 139 | -50.0 | ||||
| 2001-09-01T12:00 | 14321 | 138 | -50.1 | ||||
| 2001-09-01T12:00 | 14388 | 136 | -50.4 | 243 | 6 | ||
| 2001-09-01T12:00 | 14453 | 135 | -50.8 | ||||
| 2001-09-01T12:00 | 14516 | 134 | -51.2 | ||||
| 2001-09-01T12:00 | 14580 | 132 | -51.5 | 247 | 6 | ||
| 2001-09-01T12:00 | 14643 | 131 | -52.0 | ||||
| 2001-09-01T12:00 | 14705 | 130 | -52.2 | ||||
| 2001-09-01T12:00 | 14765 | 129 | -52.4 | 250 | 6 | ||
| 2001-09-01T12:00 | 14831 | 127 | -52.6 | ||||
| 2001-09-01T12:00 | 14894 | 126 | -52.8 | ||||
| 2001-09-01T12:00 | 14955 | 125 | -53.0 | 252 | 6 | ||
| 2001-09-01T12:00 | 15015 | 124 | -53.2 | ||||
| 2001-09-01T12:00 | 15076 | 123 | -53.2 | ||||
| 2001-09-01T12:00 | 15141 | 121 | -53.2 | 250 | 5 | ||
| 2001-09-01T12:00 | 15190 | 121 | -53.2 | ||||
| 2001-09-01T12:00 | 15240 | 120 | -53.2 | ||||
| 2001-09-01T12:00 | 15290 | 119 | -53.1 | 244 | 4 | ||
| 2001-09-01T12:00 | 15339 | 118 | -53.1 | ||||
| 2001-09-01T12:00 | 15388 | 117 | -52.8 | ||||
| 2001-09-01T12:00 | 15435 | 116 | -52.6 | 235 | 4 | ||
| 2001-09-01T12:00 | 15482 | 115 | -52.6 | ||||
| 2001-09-01T12:00 | 15534 | 114 | -52.6 | ||||
| 2001-09-01T12:00 | 15588 | 113 | -52.5 | 228 | 4 | ||
| 2001-09-01T12:00 | 15643 | 112 | -52.7 | ||||
| 2001-09-01T12:00 | 15695 | 111 | -52.6 | ||||
| 2001-09-01T12:00 | 15746 | 111 | -52.7 | 227 | 4 | ||
| 2001-09-01T12:00 | 15798 | 110 | -52.7 | ||||
| 2001-09-01T12:00 | 15850 | 109 | -52.7 | ||||
| 2001-09-01T12:00 | 15902 | 108 | -52.6 | 229 | 4 | ||
| 2001-09-01T12:00 | 15954 | 107 | -52.4 | ||||
| 2001-09-01T12:00 | 16007 | 106 | -52.4 | ||||
| 2001-09-01T12:00 | 16066 | 105 | -52.5 | 234 | 5 | ||
| 2001-09-01T12:00 | 16118 | 104 | -52.5 | ||||
| 2001-09-01T12:00 | 16170 | 104 | -52.7 | ||||
| 2001-09-01T12:00 | 16222 | 103 | -52.9 | 237 | 5 | ||
| 2001-09-01T12:00 | 16272 | 102 | -52.9 | ||||
| 2001-09-01T12:00 | 16322 | 101 | -53.3 | ||||
| 2001-09-01T12:00 | 16373 | 100 | -53.2 | 236 | 6 | ||
| 2001-09-01T12:00 | 16426 | 100 | -53.1 | ||||
| 2001-09-01T12:00 | 16478 | 99 | -53.0 | ||||
| 2001-09-01T12:00 | 16530 | 98 | -52.9 | 233 | 6 | ||
| 2001-09-01T12:00 | 16579 | 97 | -52.9 | ||||
| 2001-09-01T12:00 | 16631 | 96 | -52.8 | ||||
| 2001-09-01T12:00 | 16683 | 96 | -52.7 | 229 | 7 | ||
| 2001-09-01T12:00 | 16736 | 95 | -52.6 | ||||
| 2001-09-01T12:00 | 16790 | 94 | -52.5 | ||||
| 2001-09-01T12:00 | 16842 | 93 | -52.5 | 230 | 8 | ||
| 2001-09-01T12:00 | 16894 | 93 | -52.3 | ||||
| 2001-09-01T12:00 | 16948 | 92 | -52.6 | ||||
| 2001-09-01T12:00 | 17006 | 91 | -52.9 | 238 | 9 | ||
| 2001-09-01T12:00 | 17050 | 90 | -53.0 | ||||
| 2001-09-01T12:00 | 17099 | 90 | -53.1 | ||||
| 2001-09-01T12:00 | 17151 | 89 | -53.1 | 249 | 9 | ||
| 2001-09-01T12:00 | 17204 | 88 | -53.0 | ||||
| 2001-09-01T12:00 | 17258 | 87 | -53.1 | ||||
| 2001-09-01T12:00 | 17310 | 87 | -53.4 | 259 | 8 | ||
| 2001-09-01T12:00 | 17362 | 86 | -53.6 | ||||
| 2001-09-01T12:00 | 17416 | 85 | -53.9 | ||||
| 2001-09-01T12:00 | 17468 | 85 | -54.2 | 264 | 6 | ||
| 2001-09-01T12:00 | 17520 | 84 | -54.4 | ||||
| 2001-09-01T12:00 | 17574 | 83 | -54.4 | ||||
| 2001-09-01T12:00 | 17634 | 83 | -54.6 | 264 | 6 | ||
| 2001-09-01T12:00 | 17684 | 82 | -54.7 | ||||
| 2001-09-01T12:00 | 17735 | 81 | -54.8 | ||||
| 2001-09-01T12:00 | 17787 | 81 | -54.8 | 261 | 5 | ||
| 2001-09-01T12:00 | 17838 | 80 | -54.5 | ||||
| 2001-09-01T12:00 | 17890 | 79 | -54.2 | ||||
| 2001-09-01T12:00 | 17940 | 79 | -54.1 | 260 | 5 | ||
| 2001-09-01T12:00 | 17993 | 78 | -54.1 | ||||
| 2001-09-01T12:00 | 18047 | 77 | -54.1 | ||||
| 2001-09-01T12:00 | 18100 | 77 | -54.1 | 264 | 6 | ||
| 2001-09-01T12:00 | 18151 | 76 | -53.9 | ||||
| 2001-09-01T12:00 | 18203 | 76 | -53.5 | ||||
| 2001-09-01T12:00 | 18257 | 75 | -53.6 | 270 | 6 | ||
| 2001-09-01T12:00 | 18308 | 74 | -53.7 | ||||
| 2001-09-01T12:00 | 18362 | 74 | -53.9 | ||||
| 2001-09-01T12:00 | 18417 | 73 | -54.3 | 274 | 5 | ||
| 2001-09-01T12:00 | 18470 | 72 | -54.3 | ||||
| 2001-09-01T12:00 | 18523 | 72 | -54.2 | ||||
| 2001-09-01T12:00 | 18578 | 71 | -54.2 | 273 | 4 | ||
| 2001-09-01T12:00 | 18634 | 71 | -54.3 | ||||
| 2001-09-01T12:00 | 18690 | 70 | -54.4 | ||||
| 2001-09-01T12:00 | 18748 | 69 | -54.4 | 262 | 3 | ||
| 2001-09-01T12:00 | 18804 | 69 | -54.6 | ||||
| 2001-09-01T12:00 | 18858 | 68 | -54.7 | ||||
| 2001-09-01T12:00 | 18909 | 68 | -54.9 | 247 | 3 | ||
| 2001-09-01T12:00 | 18970 | 67 | -55.1 | ||||
| 2001-09-01T12:00 | 19028 | 66 | -55.2 | ||||
| 2001-09-01T12:00 | 19082 | 66 | -55.2 | 234 | 3 | ||
| 2001-09-01T12:00 | 19135 | 65 | -55.0 | ||||
| 2001-09-01T12:00 | 19191 | 65 | -54.6 | ||||
| 2001-09-01T12:00 | 19249 | 64 | -54.3 | 228 | 3 | ||
| 2001-09-01T12:00 | 19302 | 64 | -54.0 | ||||
| 2001-09-01T12:00 | 19357 | 63 | -54.4 | ||||
| 2001-09-01T12:00 | 19412 | 63 | -54.5 | 227 | 3 | ||
| 2001-09-01T12:00 | 19468 | 62 | -54.6 | ||||
| 2001-09-01T12:00 | 19521 | 61 | -54.0 | ||||
| 2001-09-01T12:00 | 19575 | 61 | -53.6 | 227 | 3 | ||
| 2001-09-01T12:00 | 19631 | 60 | -53.6 | ||||
| 2001-09-01T12:00 | 19688 | 60 | -53.6 | ||||
| 2001-09-01T12:00 | 19744 | 59 | -53.7 | 227 | 3 | ||
| 2001-09-01T12:00 | 19800 | 59 | -53.8 | ||||
| 2001-09-01T12:00 | 19857 | 58 | -54.0 | ||||
| 2001-09-01T12:00 | 19912 | 58 | -54.2 | 225 | 3 | ||
| 2001-09-01T12:00 | 19963 | 57 | -54.3 | ||||
| 2001-09-01T12:00 | 20016 | 57 | -54.5 | ||||
| 2001-09-01T12:00 | 20071 | 56 | -54.5 | 224 | 3 | ||
| 2001-09-01T12:00 | 20127 | 56 | -54.4 | ||||
| 2001-09-01T12:00 | 20182 | 55 | -54.3 | ||||
| 2001-09-01T12:00 | 20235 | 55 | -54.2 | 224 | 4 | ||
| 2001-09-01T12:00 | 20290 | 55 | -54.0 | ||||
| 2001-09-01T12:00 | 20345 | 54 | -53.9 | ||||
| 2001-09-01T12:00 | 20398 | 54 | -53.8 | 225 | 4 | ||
| 2001-09-01T12:00 | 20452 | 53 | -53.7 | ||||
| 2001-09-01T12:00 | 20508 | 53 | -53.7 | ||||
| 2001-09-01T12:00 | 20563 | 52 | -53.8 | 227 | 4 | ||
| 2001-09-01T12:00 | 20621 | 52 | -54.0 | ||||
| 2001-09-01T12:00 | 20679 | 51 | -54.2 | ||||
| 2001-09-01T12:00 | 20737 | 51 | -54.4 | 229 | 4 | ||
| 2001-09-01T12:00 | 20792 | 50 | -54.3 | ||||
| 2001-09-01T12:00 | 20848 | 50 | -54.0 | ||||
| 2001-09-01T12:00 | 20906 | 50 | -53.7 | 235 | 3 | ||
| 2001-09-01T12:00 | 20966 | 49 | -53.5 | ||||
| 2001-09-01T12:00 | 21024 | 49 | -53.4 | ||||
| 2001-09-01T12:00 | 21082 | 48 | -53.4 | 242 | 3 | ||
| 2001-09-01T12:00 | 21138 | 48 | -53.2 | ||||
| 2001-09-01T12:00 | 21197 | 47 | -52.9 | ||||
| 2001-09-01T12:00 | 21258 | 47 | -52.7 | 248 | 2 | ||
| 2001-09-01T12:00 | 21316 | 46 | -52.5 | ||||
| 2001-09-01T12:00 | 21375 | 46 | -52.6 | ||||
| 2001-09-01T12:00 | 21433 | 46 | -52.6 | 252 | 2 | ||
| 2001-09-01T12:00 | 21491 | 45 | -52.5 | ||||
| 2001-09-01T12:00 | 21548 | 45 | -52.4 | ||||
| 2001-09-01T12:00 | 21605 | 44 | -52.3 | 252 | 2 | ||
| 2001-09-01T12:00 | 21657 | 44 | -52.2 | ||||
| 2001-09-01T12:00 | 21712 | 44 | -52.1 | ||||
| 2001-09-01T12:00 | 21769 | 43 | -52.0 | 248 | 2 | ||
| 2001-09-01T12:00 | 21828 | 43 | -52.0 | ||||
| 2001-09-01T12:00 | 21886 | 43 | -51.8 | ||||
| 2001-09-01T12:00 | 21948 | 42 | -51.6 | 242 | 2 | ||
| 2001-09-01T12:00 | 21994 | 42 | -51.4 | ||||
| 2001-09-01T12:00 | 22043 | 42 | -51.2 | ||||
| 2001-09-01T12:00 | 22099 | 41 | -51.1 | 238 | 2 | ||
| 2001-09-01T12:00 | 22157 | 41 | -51.0 | ||||
| 2001-09-01T12:00 | 22213 | 40 | -51.1 | ||||
| 2001-09-01T12:00 | 22265 | 40 | -51.2 | 228 | 2 | ||
| 2001-09-01T12:00 | 22324 | 40 | -51.2 | ||||
| 2001-09-01T12:00 | 22383 | 39 | -51.2 | ||||
| 2001-09-01T12:00 | 22443 | 39 | -51.2 | 216 | 3 | ||
| 2001-09-01T12:00 | 22502 | 39 | -51.3 | ||||
| 2001-09-01T12:00 | 22557 | 38 | -51.4 | ||||
| 2001-09-01T12:00 | 22609 | 38 | -51.4 | 218 | 4 | ||
| 2001-09-01T12:00 | 22678 | 38 | -51.5 | ||||
| 2001-09-01T12:00 | 22741 | 37 | -51.7 | ||||
| 2001-09-01T12:00 | 22801 | 37 | -51.8 | 226 | 4 | ||
| 2001-09-01T12:00 | 22863 | 37 | -52.0 | ||||
| 2001-09-01T12:00 | 22924 | 36 | -52.0 | ||||
| 2001-09-01T12:00 | 22988 | 36 | -52.2 | 249 | 4 | ||
| 2001-09-01T12:00 | 23049 | 36 | -52.3 | ||||
| 2001-09-01T12:00 | 23109 | 35 | -52.5 | ||||
| 2001-09-01T12:00 | 23168 | 35 | -52.6 | 271 | 4 | ||
| 2001-09-01T12:00 | 23229 | 35 | -52.8 | ||||
| 2001-09-01T12:00 | 23292 | 34 | -52.9 | ||||
| 2001-09-01T12:00 | 23360 | 34 | -52.9 | 276 | 3 | ||
| 2001-09-01T12:00 | 23413 | 34 | -52.9 | ||||
| 2001-09-01T12:00 | 23473 | 33 | -52.8 | ||||
| 2001-09-01T12:00 | 23536 | 33 | -52.7 | 269 | 3 | ||
| 2001-09-01T12:00 | 23598 | 33 | -52.5 | ||||
| 2001-09-01T12:00 | 23657 | 32 | -52.3 | ||||
| 2001-09-01T12:00 | 23713 | 32 | -52.0 | 256 | 3 | ||
| 2001-09-01T12:00 | 23768 | 32 | -51.7 | ||||
| 2001-09-01T12:00 | 23824 | 32 | -51.5 | ||||
| 2001-09-01T12:00 | 23882 | 31 | -51.1 | 235 | 3 | ||
| 2001-09-01T12:00 | 23943 | 31 | -50.7 | ||||
| 2001-09-01T12:00 | 24001 | 31 | -50.4 | ||||
| 2001-09-01T12:00 | 24059 | 30 | -50.1 | 228 | 4 | ||
| 2001-09-01T12:00 | 24115 | 30 | -49.9 | ||||
| 2001-09-01T12:00 | 24172 | 30 | -49.8 | ||||
| 2001-09-01T12:00 | 24230 | 30 | -49.6 | 229 | 4 | ||
| 2001-09-01T12:00 | 24287 | 29 | -49.2 | ||||
| 2001-09-01T12:00 | 24346 | 29 | -48.8 | ||||
| 2001-09-01T12:00 | 24407 | 29 | -48.6 | 235 | 5 | ||
| 2001-09-01T12:00 | 24472 | 29 | -48.4 | ||||
| 2001-09-01T12:00 | 24534 | 28 | -48.4 | ||||
| 2001-09-01T12:00 | 24595 | 28 | -48.5 | 245 | 5 | ||
| 2001-09-01T12:00 | 24658 | 28 | -48.5 | ||||
| 2001-09-01T12:00 | 24722 | 28 | -48.6 | ||||
| 2001-09-01T12:00 | 24785 | 27 | -48.6 | 257 | 6 | ||
| 2001-09-01T12:00 | 24852 | 27 | -48.6 | ||||
| 2001-09-01T12:00 | 24918 | 27 | -48.7 | ||||
| 2001-09-01T12:00 | 24981 | 26 | -48.7 | 267 | 6 | ||
| 2001-09-01T12:00 | 25043 | 26 | -48.7 | ||||
| 2001-09-01T12:00 | 25106 | 26 | -48.8 | ||||
| 2001-09-01T12:00 | 25168 | 26 | -48.5 | 274 | 5 | ||
| 2001-09-01T12:00 | 25236 | 25 | -48.2 | ||||
| 2001-09-01T12:00 | 25300 | 25 | -47.9 | ||||
| 2001-09-01T12:00 | 25361 | 25 | -47.6 | 276 | 4 | ||
| 2001-09-01T12:00 | 25421 | 25 | -47.7 | ||||
| 2001-09-01T12:00 | 25481 | 25 | -47.7 | ||||
| 2001-09-01T12:00 | 25539 | 24 | -47.7 | 273 | 3 | ||
| 2001-09-01T12:00 | 25610 | 24 | -47.6 | ||||
| 2001-09-01T12:00 | 25677 | 24 | -47.5 | ||||
| 2001-09-01T12:00 | 25740 | 24 | -47.5 | 269 | 3 | ||
| 2001-09-01T12:00 | 25802 | 23 | -47.2 | ||||
| 2001-09-01T12:00 | 25865 | 23 | -46.8 | ||||
| 2001-09-01T12:00 | 25931 | 23 | -46.5 | 269 | 3 | ||
| 2001-09-01T12:00 | 25988 | 23 | -46.3 | ||||
| 2001-09-01T12:00 | 26048 | 23 | -46.0 | ||||
| 2001-09-01T12:00 | 26113 | 22 | -45.7 | 261 | 3 | ||
| 2001-09-01T12:00 | 26178 | 22 | -45.4 | ||||
| 2001-09-01T12:00 | 26245 | 22 | -45.0 | ||||
| 2001-09-01T12:00 | 26311 | 22 | -44.9 | 246 | 2 | ||
| 2001-09-01T12:00 | 26367 | 21 | -44.9 | ||||
| 2001-09-01T12:00 | 26426 | 21 | -44.9 | ||||
| 2001-09-01T12:00 | 26484 | 21 | -44.9 | 234 | 3 | ||
| 2001-09-01T12:00 | 26542 | 21 | -44.7 | ||||
| 2001-09-01T12:00 | 26599 | 21 | -44.5 | ||||
| 2001-09-01T12:00 | 26662 | 21 | -44.4 | 221 | 3 | ||
| 2001-09-01T12:00 | 26730 | 20 | -44.3 | ||||
| 2001-09-01T12:00 | 26795 | 20 | -44.1 | ||||
| 2001-09-01T12:00 | 26857 | 20 | -43.9 | 211 | 3 | ||
| 2001-09-01T12:00 | 26920 | 20 | -43.9 | ||||
| 2001-09-01T12:00 | 26982 | 20 | -44.0 | ||||
| 2001-09-01T12:00 | 27046 | 19 | -44.0 | 207 | 4 | ||
| 2001-09-01T12:00 | 27116 | 19 | -44.0 | ||||
| 2001-09-01T12:00 | 27183 | 19 | -43.9 | ||||
| 2001-09-01T12:00 | 27249 | 19 | -43.8 | 206 | 5 | ||
| 2001-09-01T12:00 | 27316 | 19 | -43.9 | ||||
| 2001-09-01T12:00 | 27388 | 18 | -44.1 | ||||
| 2001-09-01T12:00 | 27452 | 18 | -44.3 | 207 | 6 | ||
| 2001-09-01T12:00 | 27517 | 18 | -44.4 | ||||
| 2001-09-01T12:00 | 27584 | 18 | -44.4 | ||||
| 2001-09-01T12:00 | 27650 | 18 | -44.5 | 208 | 7 | ||
| 2001-09-01T12:00 | 27715 | 18 | -44.5 | ||||
| 2001-09-01T12:00 | 27782 | 17 | -44.8 | ||||
| 2001-09-01T12:00 | 27849 | 17 | -44.4 | 210 | 8 | ||
| 2001-09-01T12:00 | 27916 | 17 | -44.2 | ||||
| 2001-09-01T12:00 | 27983 | 17 | -44.1 | ||||
| 2001-09-01T12:00 | 28049 | 17 | -44.2 | 212 | 8 | ||
| 2001-09-01T12:00 | 28113 | 17 | -43.8 | ||||
| 2001-09-01T12:00 | 28178 | 16 | -43.5 | ||||
| 2001-09-01T12:00 | 28251 | 16 | -43.2 | 210 | 8 | ||
| 2001-09-01T12:00 | 28320 | 16 | -42.9 | ||||
| 2001-09-01T12:00 | 28389 | 16 | -42.4 | ||||
| 2001-09-01T12:00 | 28455 | 16 | -42.1 | 207 | 8 | ||
| 2001-09-01T12:00 | 28523 | 16 | -41.9 | ||||
| 2001-09-01T12:00 | 28590 | 15 | -41.8 | ||||
| 2001-09-01T12:00 | 28655 | 15 | -41.7 | 205 | 8 | ||
| 2001-09-01T12:00 | 28721 | 15 | -41.7 | ||||
| 2001-09-01T12:00 | 28792 | 15 | -41.9 | ||||
| 2001-09-01T12:00 | 28862 | 15 | -41.8 | 210 | 8 | ||
| 2001-09-01T12:00 | 28931 | 15 | -41.8 | ||||
| 2001-09-01T12:00 | 29005 | 15 | -41.8 | ||||
| 2001-09-01T12:00 | 29083 | 14 | -41.7 | 221 | 9 | ||
| 2001-09-01T12:00 | 29148 | 14 | -41.5 | ||||
| 2001-09-01T12:00 | 29216 | 14 | -41.4 | ||||
| 2001-09-01T12:00 | 29289 | 14 | -41.5 | 234 | 10 | ||
| 2001-09-01T12:00 | 29358 | 14 | -41.3 | ||||
| 2001-09-01T12:00 | 29426 | 14 | -41.2 | ||||
| 2001-09-01T12:00 | 29492 | 14 | -41.0 | 246 | 10 | ||
| 2001-09-01T12:00 | 29572 | 13 | -41.0 | ||||
| 2001-09-01T12:00 | 29648 | 13 | -40.9 | ||||
| 2001-09-01T12:00 | 29720 | 13 | -40.8 | 255 | 9 | ||
| 2001-09-01T12:00 | 29790 | 13 | -40.1 | ||||
| 2001-09-01T12:00 | 29858 | 13 | -39.7 | ||||
| 2001-09-01T12:00 | 29930 | 13 | -39.5 | 254 | 6 | ||
| 2001-09-01T12:00 | 29998 | 13 | -39.4 | ||||
| 2001-09-01T12:00 | 30067 | 12 | -39.5 | ||||
| 2001-09-01T12:00 | 30135 | 12 | -39.4 | 247 | 3 | ||
| 2001-09-01T12:00 | 30202 | 12 | -39.1 | ||||
| 2001-09-01T12:00 | 30269 | 12 | -39.0 | ||||
| 2001-09-01T12:00 | 30338 | 12 | -39.0 | 177 | 3 | ||
| 2001-09-01T12:00 | 30401 | 12 | -38.9 | ||||
| 2001-09-01T12:00 | 30465 | 12 | -38.8 | ||||
| 2001-09-01T12:00 | 30530 | 12 | -38.7 | 172 | 6 | ||
| 2001-09-01T12:00 | 30594 | 12 | -38.6 | ||||
| 2001-09-01T12:00 | 30661 | 11 | -38.4 | ||||
| 2001-09-01T12:00 | 30730 | 11 | -38.2 | 175 | 9 | ||
| 2001-09-01T12:00 | 30799 | 11 | -38.4 | ||||
| 2001-09-01T12:00 | 30868 | 11 | -38.6 | ||||
| 2001-09-01T12:00 | 30935 | 11 | -38.8 | 182 | 9 | ||
| 2001-09-01T12:00 | 31002 | 11 | -38.9 | ||||
| 2001-09-01T12:00 | 31067 | 11 | -39.1 | ||||
| 2001-09-01T12:00 | 31137 | 11 | -39.2 | 190 | 8 | ||
| 2001-09-01T12:00 | 31209 | 11 | -39.1 | ||||
| 2001-09-01T12:00 | 31281 | 10 | -39.0 | ||||
| 2001-09-01T12:00 | 31348 | 10 | -38.8 | 200 | 7 | ||
| 2001-09-01T12:00 | 31415 | 10 | -38.4 | ||||
| 2001-09-01T12:00 | 31484 | 10 | -38.3 | ||||
| 2001-09-01T12:00 | 31561 | 10 | -38.4 | 211 | 6 | ||
| 2001-09-01T12:00 | 31637 | 10 | -38.6 | ||||
| 2001-09-01T12:00 | 31715 | 10 | -38.7 | ||||
| 2001-09-01T12:00 | 31796 | 10 | -38.7 | 224 | 6 | ||
| 2001-09-01T12:00 | 31873 | 10 | -38.8 | ||||
| 2001-09-01T12:00 | 31943 | 9 | -38.8 | ||||
| 2001-09-01T12:00 | 32005 | 9 | -38.9 | 236 | 6 | ||
| 2001-09-01T12:00 | 32072 | 9 | -38.9 | ||||
| 2001-09-01T12:00 | 32213 | 9 | -38.6 | 243 | 6 | ||
| 2001-09-01T12:00 | 32290 | 9 | -38.5 | ||||
| 2001-09-01T12:00 | 32361 | 9 | -38.3 | ||||
| 2001-09-01T12:00 | 32421 | 9 | -38.0 | 242 | 6 | ||
| 2001-09-01T12:00 | 32507 | 9 | -37.7 | ||||
| 2001-09-01T12:00 | 32598 | 9 | -37.4 | ||||
| 2001-09-01T12:00 | 32690 | 9 | -37.2 | 235 | 5 | ||
| 2001-09-01T12:00 | 32775 | 8 | -37.0 | ||||
| 2001-09-01T12:00 | 32910 | 8 | -36.6 | 224 | 5 | ||
| 2001-09-01T12:00 | 32986 | 8 | -36.6 | ||||
| 2001-09-01T12:00 | 33059 | 8 | -36.6 | ||||
| 2001-09-01T12:00 | 33125 | 8 | -36.1 | 213 | 4 | ||
| 2001-09-01T12:00 | 33256 | 8 | -35.4 | ||||
| 2001-09-01T12:00 | 33327 | 8 | -35.4 | 202 | 3 | ||
| 2001-09-01T12:00 | 33400 | 8 | -35.5 | ||||
| 2001-09-01T12:00 | 33473 | 8 | -35.6 | ||||
| 2001-09-01T12:00 | 33621 | 7 | -35.9 | 160 | 1 | ||
| 2001-09-01T18:00 | 112 | 996 | 19.7 | 11.0 | 300 | 4 | |
| 2001-09-01T18:00 | 150 | 992 | 19.4 | 9.6 | 302 | 5 | |
| 2001-09-01T18:00 | 190 | 987 | 19.2 | 9.4 | |||
| 2001-09-01T18:00 | 232 | 982 | 18.8 | 9.3 | 306 | 6 | |
| 2001-09-01T18:00 | 276 | 977 | 18.5 | 9.3 | |||
| 2001-09-01T18:00 | 318 | 973 | 18.0 | 8.8 | |||
| 2001-09-01T18:00 | 359 | 968 | 17.6 | 8.7 | 311 | 7 | |
| 2001-09-01T18:00 | 401 | 963 | 17.3 | 8.7 | |||
| 2001-09-01T18:00 | 445 | 958 | 16.8 | 8.8 | |||
| 2001-09-01T18:00 | 488 | 953 | 16.4 | 8.6 | 312 | 8 | |
| 2001-09-01T18:00 | 532 | 948 | 16.0 | 8.7 | |||
| 2001-09-01T18:00 | 580 | 943 | 15.6 | 8.6 | |||
| 2001-09-01T18:00 | 625 | 938 | 15.1 | 8.4 | 310 | 9 | |
| 2001-09-01T18:00 | 671 | 933 | 14.7 | 8.4 | |||
| 2001-09-01T18:00 | 718 | 928 | 14.3 | 8.3 | |||
| 2001-09-01T18:00 | 764 | 923 | 13.9 | 7.9 | 306 | 10 | |
| 2001-09-01T18:00 | 807 | 918 | 13.4 | 7.6 | |||
| 2001-09-01T18:00 | 850 | 913 | 13.1 | 7.8 | |||
| 2001-09-01T18:00 | 897 | 908 | 12.6 | 7.7 | 305 | 10 | |
| 2001-09-01T18:00 | 961 | 901 | 12.0 | 7.5 | |||
| 2001-09-01T18:00 | 1024 | 895 | 11.4 | 7.3 | |||
| 2001-09-01T18:00 | 1086 | 888 | 10.8 | 7.1 | 308 | 9 | |
| 2001-09-01T18:00 | 1149 | 881 | 10.2 | 7.1 | |||
| 2001-09-01T18:00 | 1216 | 874 | 9.5 | 6.9 | |||
| 2001-09-01T18:00 | 1287 | 867 | 8.9 | 6.9 | 312 | 10 | |
| 2001-09-01T18:00 | 1347 | 861 | 8.3 | 6.3 | |||
| 2001-09-01T18:00 | 1406 | 855 | 7.8 | 5.9 | |||
| 2001-09-01T18:00 | 1464 | 848 | 7.2 | 5.5 | 314 | 10 | |
| 2001-09-01T18:00 | 1521 | 843 | 6.7 | 5.3 | |||
| 2001-09-01T18:00 | 1577 | 837 | 6.2 | 5.2 | |||
| 2001-09-01T18:00 | 1631 | 831 | 5.6 | 4.9 | 314 | 10 | |
| 2001-09-01T18:00 | 1683 | 826 | 5.7 | 3.5 | |||
| 2001-09-01T18:00 | 1735 | 821 | 5.7 | 3.2 | |||
| 2001-09-01T18:00 | 1787 | 816 | 5.5 | 2.5 | 313 | 10 | |
| 2001-09-01T18:00 | 1839 | 811 | 5.3 | 2.0 | |||
| 2001-09-01T18:00 | 1891 | 806 | 5.1 | 1.6 | |||
| 2001-09-01T18:00 | 1943 | 800 | 4.7 | 1.2 | 315 | 9 | |
| 2001-09-01T18:00 | 1988 | 796 | 4.3 | 0.8 | |||
| 2001-09-01T18:00 | 2036 | 791 | 3.9 | 0.4 | |||
| 2001-09-01T18:00 | 2088 | 786 | 3.6 | 0.0 | 318 | 8 | |
| 2001-09-01T18:00 | 2137 | 781 | 3.2 | ||||
| 2001-09-01T18:00 | 2187 | 777 | 3.0 | -0.7 | |||
| 2001-09-01T18:00 | 2238 | 772 | 2.7 | -1.0 | 319 | 8 | |
| 2001-09-01T18:00 | 2291 | 767 | 2.2 | -1.2 | |||
| 2001-09-01T18:00 | 2345 | 762 | 1.8 | -1.1 | |||
| 2001-09-01T18:00 | 2400 | 757 | 1.2 | -1.4 | 316 | 8 | |
| 2001-09-01T18:00 | 2455 | 751 | 0.8 | -1.4 | |||
| 2001-09-01T18:00 | 2508 | 746 | 0.4 | -1.5 | |||
| 2001-09-01T18:00 | 2559 | 742 | 0.0 | -1.5 | 312 | 7 | |
| 2001-09-01T18:00 | 2606 | 737 | -0.4 | -2.2 | |||
| 2001-09-01T18:00 | 2653 | 733 | -0.8 | -2.2 | |||
| 2001-09-01T18:00 | 2703 | 728 | -1.1 | -3.2 | 308 | 7 | |
| 2001-09-01T18:00 | 2756 | 724 | -1.4 | -4.4 | |||
| 2001-09-01T18:00 | 2810 | 719 | -1.4 | -5.6 | |||
| 2001-09-01T18:00 | 2867 | 714 | -1.5 | -6.6 | 305 | 7 | |
| 2001-09-01T18:00 | 2915 | 709 | -1.6 | -7.0 | |||
| 2001-09-01T18:00 | 2962 | 705 | -1.7 | -7.9 | |||
| 2001-09-01T18:00 | 3011 | 701 | -1.7 | -8.9 | 303 | 6 | |
| 2001-09-01T18:00 | 3063 | 696 | -1.5 | -9.6 | |||
| 2001-09-01T18:00 | 3116 | 692 | -1.3 | -6.6 | |||
| 2001-09-01T18:00 | 3174 | 687 | -1.1 | -6.4 | 305 | 5 | |
| 2001-09-01T18:00 | 3229 | 682 | -1.4 | -7.0 | |||
| 2001-09-01T18:00 | 3283 | 677 | -1.6 | -7.6 | |||
| 2001-09-01T18:00 | 3334 | 673 | -1.7 | -8.1 | 314 | 4 | |
| 2001-09-01T18:00 | 3388 | 668 | -1.8 | ||||
| 2001-09-01T18:00 | 3441 | 664 | -1.9 | -8.5 | |||
| 2001-09-01T18:00 | 3493 | 660 | -2.0 | -8.2 | 323 | 4 | |
| 2001-09-01T18:00 | 3547 | 655 | -2.3 | -7.9 | |||
| 2001-09-01T18:00 | 3606 | 650 | -2.6 | -10.6 | |||
| 2001-09-01T18:00 | 3667 | 645 | -3.0 | -10.1 | 327 | 4 | |
| 2001-09-01T18:00 | 3727 | 640 | -3.2 | -9.7 | |||
| 2001-09-01T18:00 | 3787 | 636 | -3.6 | -9.9 | |||
| 2001-09-01T18:00 | 3845 | 631 | -4.0 | -10.3 | 327 | 5 | |
| 2001-09-01T18:00 | 3895 | 627 | -4.4 | -10.5 | |||
| 2001-09-01T18:00 | 3947 | 623 | -4.7 | -10.8 | |||
| 2001-09-01T18:00 | 4001 | 619 | -5.2 | -11.2 | 325 | 6 | |
| 2001-09-01T18:00 | 4055 | 614 | -5.5 | -11.3 | |||
| 2001-09-01T18:00 | 4112 | 610 | -6.0 | -11.4 | |||
| 2001-09-01T18:00 | 4169 | 606 | -6.5 | -11.6 | 322 | 7 | |
| 2001-09-01T18:00 | 4232 | 601 | -6.9 | -11.4 | |||
| 2001-09-01T18:00 | 4295 | 596 | -7.3 | -11.7 | |||
| 2001-09-01T18:00 | 4356 | 591 | -7.8 | -11.8 | 316 | 7 | |
| 2001-09-01T18:00 | 4415 | 587 | -8.3 | -11.8 | |||
| 2001-09-01T18:00 | 4470 | 583 | -8.7 | -11.8 | |||
| 2001-09-01T18:00 | 4523 | 579 | -9.0 | -12.8 | 310 | 7 | |
| 2001-09-01T18:00 | 4579 | 574 | -9.3 | -13.1 | |||
| 2001-09-01T18:00 | 4636 | 570 | -9.7 | -13.4 | |||
| 2001-09-01T18:00 | 4692 | 566 | -10.3 | -13.5 | 307 | 6 | |
| 2001-09-01T18:00 | 4749 | 562 | -10.7 | -13.5 | |||
| 2001-09-01T18:00 | 4803 | 558 | -10.8 | -13.0 | |||
| 2001-09-01T18:00 | 4862 | 554 | -10.8 | -14.9 | 308 | 6 | |
| 2001-09-01T18:00 | 4916 | 550 | -10.8 | -14.4 | |||
| 2001-09-01T18:00 | 4969 | 546 | -11.0 | -14.2 | |||
| 2001-09-01T18:00 | 5019 | 543 | -11.3 | -16.0 | 312 | 5 | |
| 2001-09-01T18:00 | 5070 | 539 | -11.4 | -17.7 | |||
| 2001-09-01T18:00 | 5124 | 535 | -11.7 | -18.4 | |||
| 2001-09-01T18:00 | 5182 | 531 | -12.1 | -17.0 | 316 | 6 | |
| 2001-09-01T18:00 | 5234 | 528 | -12.5 | -16.1 | |||
| 2001-09-01T18:00 | 5288 | 524 | -12.9 | -16.6 | |||
| 2001-09-01T18:00 | 5346 | 520 | -13.4 | 318 | 6 | ||
| 2001-09-01T18:00 | 5405 | 516 | -13.9 | -17.9 | |||
| 2001-09-01T18:00 | 5463 | 512 | -14.4 | -18.4 | |||
| 2001-09-01T18:00 | 5518 | 508 | -14.8 | -18.9 | 317 | 7 | |
| 2001-09-01T18:00 | 5579 | 504 | -15.3 | -19.6 | |||
| 2001-09-01T18:00 | 5638 | 500 | -15.8 | -19.4 | |||
| 2001-09-01T18:00 | 5695 | 496 | -16.2 | -19.4 | 316 | 7 | |
| 2001-09-01T18:00 | 5752 | 493 | -16.9 | -19.9 | |||
| 2001-09-01T18:00 | 5807 | 489 | -17.2 | -21.2 | |||
| 2001-09-01T18:00 | 5860 | 486 | -17.7 | -21.4 | 315 | 7 | |
| 2001-09-01T18:00 | 5919 | 482 | -18.1 | -21.5 | |||
| 2001-09-01T18:00 | 5979 | 478 | -18.5 | -21.5 | |||
| 2001-09-01T18:00 | 6037 | 474 | -19.0 | -21.5 | 315 | 7 | |
| 2001-09-01T18:00 | 6095 | 471 | -19.4 | -21.2 | |||
| 2001-09-01T18:00 | 6155 | 467 | -19.9 | -21.1 | |||
| 2001-09-01T18:00 | 6217 | 463 | -20.2 | -21.9 | 317 | 7 | |
| 2001-09-01T18:00 | 6273 | 459 | -20.5 | -22.4 | |||
| 2001-09-01T18:00 | 6329 | 456 | -20.8 | -23.0 | |||
| 2001-09-01T18:00 | 6385 | 453 | -21.1 | -26.3 | 319 | 7 | |
| 2001-09-01T18:00 | 6440 | 449 | -20.9 | -31.0 | |||
| 2001-09-01T18:00 | 6500 | 446 | -21.1 | -33.6 | |||
| 2001-09-01T18:00 | 6558 | 442 | -21.4 | -35.3 | 318 | 7 | |
| 2001-09-01T18:00 | 6617 | 439 | -21.8 | -33.9 | |||
| 2001-09-01T18:00 | 6674 | 435 | -22.2 | -32.8 | |||
| 2001-09-01T18:00 | 6732 | 432 | -22.7 | -32.0 | 315 | 7 | |
| 2001-09-01T18:00 | 6789 | 428 | -23.0 | -32.5 | |||
| 2001-09-01T18:00 | 6850 | 425 | -23.5 | -33.2 | |||
| 2001-09-01T18:00 | 6912 | 421 | -24.0 | -33.4 | 313 | 8 | |
| 2001-09-01T18:00 | 6966 | 418 | -24.4 | -33.8 | |||
| 2001-09-01T18:00 | 7019 | 415 | -24.9 | -34.2 | |||
| 2001-09-01T18:00 | 7074 | 412 | -25.3 | -35.6 | 313 | 8 | |
| 2001-09-01T18:00 | 7131 | 409 | -25.8 | -37.2 | |||
| 2001-09-01T18:00 | 7187 | 406 | -26.0 | -38.0 | |||
| 2001-09-01T18:00 | 7242 | 402 | -26.3 | -39.0 | 314 | 9 | |
| 2001-09-01T18:00 | 7304 | 399 | -26.8 | -38.8 | |||
| 2001-09-01T18:00 | 7367 | 396 | -27.3 | -38.3 | |||
| 2001-09-01T18:00 | 7430 | 392 | -27.8 | -37.9 | 314 | 10 | |
| 2001-09-01T18:00 | 7493 | 389 | -28.3 | -37.4 | |||
| 2001-09-01T18:00 | 7551 | 386 | -28.9 | -37.0 | |||
| 2001-09-01T18:00 | 7605 | 383 | -29.4 | -37.1 | 315 | 10 | |
| 2001-09-01T18:00 | 7669 | 379 | -30.0 | -36.7 | |||
| 2001-09-01T18:00 | 7735 | 376 | -30.6 | -36.2 | |||
| 2001-09-01T18:00 | 7799 | 372 | -31.2 | -35.8 | 313 | 10 | |
| 2001-09-01T18:00 | 7862 | 369 | -31.8 | -35.8 | |||
| 2001-09-01T18:00 | 7922 | 366 | -32.3 | -35.8 | |||
| 2001-09-01T18:00 | 7980 | 363 | -32.8 | -35.7 | 308 | 10 | |
| 2001-09-01T18:00 | 8046 | 360 | -33.3 | -36.2 | |||
| 2001-09-01T18:00 | 8111 | 356 | -33.8 | -37.2 | |||
| 2001-09-01T18:00 | 8177 | 353 | -34.4 | -38.2 | 302 | 9 | |
| 2001-09-01T18:00 | 8246 | 349 | -34.9 | -38.4 | |||
| 2001-09-01T18:00 | 8315 | 346 | -35.6 | -38.7 | |||
| 2001-09-01T18:00 | 8383 | 343 | -36.2 | -38.8 | 298 | 9 | |
| 2001-09-01T18:00 | 8449 | 339 | -36.8 | -39.5 | |||
| 2001-09-01T18:00 | 8512 | 336 | -37.3 | -40.2 | |||
| 2001-09-01T18:00 | 8574 | 333 | -37.9 | -41.1 | 296 | 8 | |
| 2001-09-01T18:00 | 8636 | 330 | -38.4 | -41.7 | |||
| 2001-09-01T18:00 | 8696 | 327 | -38.9 | -42.3 | |||
| 2001-09-01T18:00 | 8753 | 325 | -39.5 | -43.1 | 297 | 8 | |
| 2001-09-01T18:00 | 8820 | 322 | -40.0 | -44.0 | |||
| 2001-09-01T18:00 | 8885 | 318 | -40.6 | -44.3 | |||
| 2001-09-01T18:00 | 8951 | 315 | -41.2 | -44.4 | 296 | 7 | |
| 2001-09-01T18:00 | 9016 | 312 | -41.8 | -44.6 | |||
| 2001-09-01T18:00 | 9082 | 309 | -42.4 | -45.3 | |||
| 2001-09-01T18:00 | 9148 | 306 | -43.0 | -46.2 | 292 | 6 | |
| 2001-09-01T18:00 | 9202 | 304 | -43.5 | -46.6 | |||
| 2001-09-01T18:00 | 9260 | 301 | -44.0 | -47.3 | |||
| 2001-09-01T18:00 | 9318 | 299 | -44.5 | -47.9 | 286 | 5 | |
| 2001-09-01T18:00 | 9377 | 296 | -45.0 | -48.8 | |||
| 2001-09-01T18:00 | 9434 | 294 | -45.4 | ||||
| 2001-09-01T18:00 | 9493 | 291 | -45.9 | -51.0 | 280 | 5 | |
| 2001-09-01T18:00 | 9548 | 289 | -46.4 | -51.4 | |||
| 2001-09-01T18:00 | 9605 | 286 | -47.0 | -51.9 | |||
| 2001-09-01T18:00 | 9666 | 283 | -47.5 | -52.3 | 269 | 4 | |
| 2001-09-01T18:00 | 9729 | 281 | -48.1 | -52.8 | |||
| 2001-09-01T18:00 | 9790 | 278 | -48.7 | -53.4 | |||
| 2001-09-01T18:00 | 9851 | 276 | -49.2 | -53.8 | 254 | 3 | |
| 2001-09-01T18:00 | 9915 | 273 | -49.7 | -54.5 | |||
| 2001-09-01T18:00 | 9977 | 270 | -50.2 | -54.9 | |||
| 2001-09-01T18:00 | 10041 | 268 | -50.9 | -55.7 | 230 | 4 | |
| 2001-09-01T18:00 | 10101 | 265 | -51.4 | -56.2 | |||
| 2001-09-01T18:00 | 10158 | 263 | -52.0 | -56.9 | |||
| 2001-09-01T18:00 | 10212 | 261 | -52.5 | -57.4 | 217 | 4 | |
| 2001-09-01T18:00 | 10270 | 258 | -53.0 | -58.0 | |||
| 2001-09-01T18:00 | 10326 | 256 | -53.5 | -58.7 | |||
| 2001-09-01T18:00 | 10380 | 254 | -53.9 | -59.2 | 208 | 4 | |
| 2001-09-01T18:00 | 10435 | 252 | -54.3 | -59.6 | |||
| 2001-09-01T18:00 | 10491 | 250 | -54.8 | -60.4 | |||
| 2001-09-01T18:00 | 10545 | 248 | -55.3 | -61.0 | 204 | 3 | |
| 2001-09-01T18:00 | 10606 | 245 | -55.8 | -61.6 | |||
| 2001-09-01T18:00 | 10665 | 243 | -56.2 | -62.2 | |||
| 2001-09-01T18:00 | 10724 | 241 | -56.5 | -62.3 | 239 | 4 | |
| 2001-09-01T18:00 | 10784 | 238 | -56.6 | -62.4 | |||
| 2001-09-01T18:00 | 10848 | 236 | -55.9 | -62.0 | |||
| 2001-09-01T18:00 | 10915 | 234 | -56.0 | -62.5 | 270 | 6 | |
| 2001-09-01T18:00 | 10986 | 231 | -56.2 | -63.2 | |||
| 2001-09-01T18:00 | 11056 | 228 | -56.6 | -63.7 | |||
| 2001-09-01T18:00 | 11121 | 226 | -57.1 | -64.4 | 284 | 7 | |
| 2001-09-01T18:00 | 11182 | 224 | -57.7 | -65.0 | |||
| 2001-09-01T18:00 | 11238 | 222 | -58.2 | -65.6 | |||
| 2001-09-01T18:00 | 11290 | 220 | -58.7 | -66.1 | 297 | 8 | |
| 2001-09-01T18:00 | 11345 | 218 | -59.1 | -66.5 | |||
| 2001-09-01T18:00 | 11400 | 216 | -59.4 | -66.7 | |||
| 2001-09-01T18:00 | 11455 | 214 | -59.2 | -66.8 | 307 | 8 | |
| 2001-09-01T18:00 | 11513 | 212 | -57.3 | -65.2 | |||
| 2001-09-01T18:00 | 11572 | 210 | -55.3 | -64.0 | |||
| 2001-09-01T18:00 | 11632 | 209 | -55.5 | -65.2 | 313 | 7 | |
| 2001-09-01T18:00 | 11689 | 207 | -55.6 | -66.1 | |||
| 2001-09-01T18:00 | 11743 | 205 | -55.7 | -67.1 | |||
| 2001-09-01T18:00 | 11798 | 203 | -55.9 | -68.0 | 318 | 8 | |
| 2001-09-01T18:00 | 11849 | 202 | -54.5 | -67.9 | |||
| 2001-09-01T18:00 | 11899 | 200 | -53.7 | -67.6 | |||
| 2001-09-01T18:00 | 11953 | 198 | -52.9 | -67.9 | 322 | 8 | |
| 2001-09-01T18:00 | 12014 | 196 | -52.1 | -68.4 | |||
| 2001-09-01T18:00 | 12073 | 195 | -51.8 | -69.5 | |||
| 2001-09-01T18:00 | 12128 | 193 | -51.9 | -70.3 | 324 | 8 | |
| 2001-09-01T18:00 | 12185 | 191 | -51.9 | ||||
| 2001-09-01T18:00 | 12242 | 190 | -51.8 | -73.4 | |||
| 2001-09-01T18:00 | 12297 | 188 | -51.9 | -76.7 | 323 | 7 | |
| 2001-09-01T18:00 | 12358 | 186 | -52.0 | -76.8 | |||
| 2001-09-01T18:00 | 12414 | 185 | -52.1 | -79.4 | |||
| 2001-09-01T18:00 | 12470 | 183 | -52.2 | -83.6 | 316 | 4 | |
| 2001-09-01T18:00 | 12528 | 181 | -52.5 | -83.8 | |||
| 2001-09-01T18:00 | 12587 | 180 | -51.8 | -83.3 | |||
| 2001-09-01T18:00 | 12643 | 178 | -52.0 | -83.5 | 304 | 3 | |
| 2001-09-01T18:00 | 12702 | 177 | -52.2 | -83.6 | |||
| 2001-09-01T18:00 | 12754 | 175 | -52.3 | -83.7 | |||
| 2001-09-01T18:00 | 12800 | 174 | -51.8 | -83.3 | 285 | 3 | |
| 2001-09-01T18:00 | 12846 | 173 | -51.5 | -83.1 | |||
| 2001-09-01T18:00 | 12892 | 172 | -51.6 | -83.2 | |||
| 2001-09-01T18:00 | 12939 | 170 | -51.6 | -83.2 | 277 | 3 | |
| 2001-09-01T18:00 | 12988 | 169 | -51.7 | -83.2 | |||
| 2001-09-01T18:00 | 13036 | 168 | -51.8 | -83.3 | |||
| 2001-09-01T18:00 | 13086 | 166 | -52.0 | -83.5 | 272 | 3 | |
| 2001-09-01T18:00 | 13139 | 165 | -51.9 | -83.4 | |||
| 2001-09-01T18:00 | 13192 | 164 | -51.7 | -83.2 | |||
| 2001-09-01T18:00 | 13248 | 162 | -51.4 | -83.0 | 268 | 3 | |
| 2001-09-01T18:00 | 13297 | 161 | -51.2 | -82.9 | |||
| 2001-09-01T18:00 | 13346 | 160 | -51.1 | -82.8 | |||
| 2001-09-01T18:00 | 13399 | 159 | -50.9 | -82.7 | 267 | 4 | |
| 2001-09-01T18:00 | 13453 | 157 | -50.3 | -82.2 | |||
| 2001-09-01T18:00 | 13505 | 156 | -49.4 | -81.6 | |||
| 2001-09-01T18:00 | 13560 | 155 | -49.4 | -81.6 | 273 | 5 | |
| 2001-09-01T18:00 | 13616 | 153 | -49.5 | -81.6 | |||
| 2001-09-01T18:00 | 13670 | 152 | -49.7 | -81.8 | |||
| 2001-09-01T18:00 | 13723 | 151 | -49.8 | -81.8 | 285 | 8 | |
| 2001-09-01T18:00 | 13774 | 150 | -49.8 | -81.8 | |||
| 2001-09-01T18:00 | 13828 | 149 | -50.1 | -82.1 | |||
| 2001-09-01T18:00 | 13885 | 147 | -50.3 | -82.2 | 295 | 8 | |
| 2001-09-01T18:00 | 13933 | 146 | -50.5 | ||||
| 2001-09-01T18:00 | 13984 | 145 | -50.6 | -82.4 | |||
| 2001-09-01T18:00 | 14033 | 144 | -50.9 | -82.7 | 303 | 7 | |
| 2001-09-01T18:00 | 14083 | 143 | -51.3 | -82.9 | |||
| 2001-09-01T18:00 | 14130 | 142 | -51.3 | -82.9 | |||
| 2001-09-01T18:00 | 14181 | 141 | -51.3 | -82.9 | 308 | 6 | |
| 2001-09-01T18:00 | 14232 | 140 | -51.4 | -83.0 | |||
| 2001-09-01T18:00 | 14282 | 139 | -51.5 | -83.1 | |||
| 2001-09-01T18:00 | 14331 | 138 | -51.5 | -83.1 | 307 | 4 | |
| 2001-09-01T18:00 | 14384 | 136 | -51.8 | -83.3 | |||
| 2001-09-01T18:00 | 14436 | 135 | -51.9 | -83.4 | |||
| 2001-09-01T18:00 | 14486 | 134 | -51.9 | -83.4 | 297 | 3 | |
| 2001-09-01T18:00 | 14534 | 133 | -51.9 | -83.4 | |||
| 2001-09-01T18:00 | 14585 | 132 | -51.8 | -83.3 |
Only the first 2000 rows were shown. To view the complete dataset, download it as tab-delimited text. You can still view the full matrix in your browser, but be aware that this may crash the browser due to the huge size.
